Observation data for Odell on 01/19/2019      Previous  Date  Next       Current Mesonet Observations  Soil Data  Daily Summary Page  Observations in Plain Language
KOD1 190600Z 34023G32KT 04/M00 A2993 RMK A01 T00361004  RH  075%=      5-min Rain = 0
KOD1 190601Z 35024G29KT 04/M00 A2993 RMK A01 T00361004  RH  075%=      5-min Rain = 0
KOD1 190602Z 35029KT 04/M01 A2993 RMK A01 T00361005  RH  075%=      5-min Rain = 0
KOD1 190603Z 34020G27KT 04/M01 A2994 RMK A01 T00361005  RH  075%=      5-min Rain = 0
KOD1 190604Z 34027G35KT 04/M01 A2993 RMK A01 T00351006  RH  074%=      5-min Rain = 0
KOD1 190605Z 34030G35KT 04/M01 A2994 RMK A01 T00351008  RH  073%=      5-min Rain = 0
KOD1 190606Z 34030G35KT 04/M01 A2994 RMK A01 T00351010  RH  073%=      5-min Rain = 0
KOD1 190607Z 34029G34KT 03/M01 A2994 RMK A01 T00341010  RH  073%=      5-min Rain = 0
KOD1 190608Z 34026G34KT 03/M01 A2994 RMK A01 T00341010  RH  073%=      5-min Rain = 0
KOD1 190609Z 34033G38KT 03/M01 A2994 RMK A01 T00341011  RH  073%=      5-min Rain = 0
KOD1 190610Z 34029G34KT 03/M01 A2994 RMK A01 T00341011  RH  073%=      5-min Rain = 0
KOD1 190611Z 34029G36KT 03/M01 A2994 RMK A01 T00331011  RH  073%=      5-min Rain = 0
KOD1 190612Z 35022G29KT 03/M01 A2994 RMK A01 T00331010  RH  073%=      5-min Rain = 0
KOD1 190613Z 35025G30KT 03/M01 A2994 RMK A01 T00331010  RH  073%=      5-min Rain = 0
KOD1 190614Z 35024G31KT 03/M01 A2995 RMK A01 T00321009  RH  074%=      5-min Rain = 0
KOD1 190615Z 34019KT 03/M01 A2994 RMK A01 T00321009  RH  075%=      5-min Rain = 0
KOD1 190616Z 34019KT 03/M01 A2994 RMK A01 T00321009  RH  075%=      5-min Rain = 0
KOD1 190617Z 35020G25KT 03/M01 A2995 RMK A01 T00321009  RH  075%=      5-min Rain = 0
KOD1 190618Z 35024G32KT 03/M01 A2994 RMK A01 T00311009  RH  074%=      5-min Rain = 0
KOD1 190619Z 34023KT 03/M01 A2995 RMK A01 T00311010  RH  074%=      5-min Rain = 0
KOD1 190620Z 34020G26KT 03/M01 A2995 RMK A01 T00311009  RH  075%=      5-min Rain = 0
KOD1 190621Z 34025G30KT 03/M01 A2995 RMK A01 T00311009  RH  075%=      5-min Rain = 0
KOD1 190622Z 34029G35KT 03/M01 A2994 RMK A01 T00311010  RH  074%=      5-min Rain = 0
KOD1 190623Z 34028G37KT 03/M01 A2995 RMK A01 T00301011  RH  075%=      5-min Rain = 0
KOD1 190624Z 33028G34KT 03/M01 A2995 RMK A01 T00301010  RH  075%=      5-min Rain = 0
KOD1 190625Z 34026KT 03/M01 A2995 RMK A01 T00291009  RH  076%=      5-min Rain = 0
KOD1 190626Z 34026G34KT 03/M01 A2995 RMK A01 T00281009  RH  076%=      5-min Rain = 0
KOD1 190627Z 35027G33KT 03/M01 A2995 RMK A01 T00281009  RH  077%=      5-min Rain = 0
KOD1 190628Z 35025G32KT 03/M01 A2995 RMK A01 T00281009  RH  077%=      5-min Rain = 0
KOD1 190629Z 35025G33KT 03/M01 A2995 RMK A01 T00271009  RH  077%=      5-min Rain = 0
KOD1 190630Z 34025KT 03/M01 A2995 RMK A01 T00271009  RH  077%=      5-min Rain = 0
KOD1 190631Z 34023KT 03/M01 A2995 RMK A01 T00271009  RH  077%=      5-min Rain = 0
KOD1 190632Z 34028G34KT 03/M01 A2995 RMK A01 T00271009  RH  077%=      5-min Rain = 0
KOD1 190633Z 34025KT 03/M01 A2995 RMK A01 T00271009  RH  077%=      5-min Rain = 0
KOD1 190634Z 34024G29KT 03/M01 A2995 RMK A01 T00271009  RH  077%=      5-min Rain = 0
KOD1 190635Z 34024G29KT 03/M01 A2995 RMK A01 T00271009  RH  078%=      5-min Rain = 0
KOD1 190636Z 35027G32KT 03/M01 A2995 RMK A01 T00271009  RH  078%=      5-min Rain = 0
KOD1 190637Z 34026G31KT 03/M01 A2995 RMK A01 T00271009  RH  077%=      5-min Rain = 0
KOD1 190638Z 34023KT 03/M01 A2995 RMK A01 T00261009  RH  077%=      5-min Rain = 0
KOD1 190639Z 34020G27KT 03/M01 A2996 RMK A01 T00271008  RH  078%=      5-min Rain = 0
KOD1 190640Z 34017G26KT 03/M01 A2996 RMK A01 T00271008  RH  078%=      5-min Rain = 0
KOD1 190641Z 34022KT 03/M01 A2996 RMK A01 T00271009  RH  077%=      5-min Rain = 0
KOD1 190642Z 34023G30KT 03/M01 A2995 RMK A01 T00271010  RH  076%=      5-min Rain = 0
KOD1 190643Z 34020G25KT 03/M01 A2996 RMK A01 T00281010  RH  076%=      5-min Rain = 0
KOD1 190644Z 34019G25KT 03/M01 A2996 RMK A01 T00281010  RH  076%=      5-min Rain = 0
KOD1 190645Z 34018KT 03/M01 A2996 RMK A01 T00281010  RH  076%=      5-min Rain = 0
KOD1 190646Z 34024G32KT 03/M01 A2996 RMK A01 T00281011  RH  075%=      5-min Rain = 0
KOD1 190647Z 33024KT 03/M01 A2996 RMK A01 T00281012  RH  075%=      5-min Rain = 0
KOD1 190648Z 34023G28KT 03/M01 A2996 RMK A01 T00281013  RH  074%=      5-min Rain = 0
KOD1 190649Z 34021G30KT 03/M01 A2996 RMK A01 T00281012  RH  075%=      5-min Rain = 0
KOD1 190650Z 34024G31KT 03/M01 A2996 RMK A01 T00281013  RH  074%=      5-min Rain = 0
KOD1 190651Z 34026G31KT 03/M01 A2996 RMK A01 T00281014  RH  074%=      5-min Rain = 0
KOD1 190652Z 34025KT 03/M01 A2996 RMK A01 T00281014  RH  074%=      5-min Rain = 0
KOD1 190653Z 34027G33KT 03/M02 A2996 RMK A01 T00281015  RH  073%=      5-min Rain = 0
KOD1 190654Z 35023G29KT 03/M02 A2996 RMK A01 T00281015  RH  073%=      5-min Rain = 0
KOD1 190655Z 34021G27KT 03/M02 A2996 RMK A01 T00281015  RH  073%=      5-min Rain = 0
KOD1 190656Z 34023G28KT 03/M02 A2996 RMK A01 T00281015  RH  073%=      5-min Rain = 0
KOD1 190657Z 34020G25KT 03/M02 A2996 RMK A01 T00291016  RH  072%=      5-min Rain = 0
KOD1 190658Z 34024KT 03/M02 A2996 RMK A01 T00291017  RH  072%=      5-min Rain = 0
KOD1 190659Z 34022G32KT 03/M02 A2997 RMK A01 T00291017  RH  072%=      5-min Rain = 0
KOD1 190700Z 34021KT 03/M02 A2997 RMK A01 T00291018  RH  071%=      5-min Rain = 0
KOD1 190701Z 34023G29KT 03/M02 A2997 RMK A01 T00291018  RH  071%=      5-min Rain = 0
KOD1 190702Z 34020G30KT 03/M02 A2997 RMK A01 T00291019  RH  071%=      5-min Rain = 0
KOD1 190703Z 34027KT 03/M02 A2997 RMK A01 T00291020  RH  070%=      5-min Rain = 0
KOD1 190704Z 34025KT 03/M02 A2997 RMK A01 T00281021  RH  070%=      5-min Rain = 0
KOD1 190705Z 34024G30KT 03/M02 A2997 RMK A01 T00281021  RH  070%=      5-min Rain = 0
KOD1 190706Z 34026KT 03/M02 A2997 RMK A01 T00281021  RH  070%=      5-min Rain = 0
KOD1 190707Z 34025KT 03/M02 A2997 RMK A01 T00281022  RH  070%=      5-min Rain = 0
KOD1 190708Z 34024KT 03/M02 A2997 RMK A01 T00281022  RH  070%=      5-min Rain = 0
KOD1 190709Z 34024KT 03/M02 A2997 RMK A01 T00271022  RH  070%=      5-min Rain = 0
KOD1 190710Z 34022G27KT 03/M02 A2998 RMK A01 T00271022  RH  070%=      5-min Rain = 0
KOD1 190711Z 34022G30KT 03/M02 A2998 RMK A01 T00271022  RH  070%=      5-min Rain = 0
KOD1 190712Z 34023KT 03/M02 A2998 RMK A01 T00271023  RH  070%=      5-min Rain = 0
KOD1 190713Z 33023G29KT 03/M02 A2998 RMK A01 T00261023  RH  070%=      5-min Rain = 0
KOD1 190714Z 34026KT 03/M02 A2998 RMK A01 T00261024  RH  070%=      5-min Rain = 0
KOD1 190715Z 34023G33KT 03/M02 A2998 RMK A01 T00261024  RH  070%=      5-min Rain = 0
KOD1 190716Z 34027G32KT 03/M02 A2998 RMK A01 T00261024  RH  069%=      5-min Rain = 0
KOD1 190717Z 34026G35KT 03/M02 A2998 RMK A01 T00261024  RH  070%=      5-min Rain = 0
KOD1 190718Z 34028KT 03/M03 A2998 RMK A01 T00251025  RH  069%=      5-min Rain = 0
KOD1 190719Z 34026G35KT 03/M03 A2998 RMK A01 T00261026  RH  069%=      5-min Rain = 0
KOD1 190720Z 34024G30KT 03/M03 A2998 RMK A01 T00261026  RH  069%=      5-min Rain = 0
KOD1 190721Z 34029G34KT 03/M03 A2998 RMK A01 T00261026  RH  069%=      5-min Rain = 0
KOD1 190722Z 34025G36KT 03/M03 A2998 RMK A01 T00251026  RH  069%=      5-min Rain = 0
KOD1 190723Z 33031G36KT 03/M03 A2998 RMK A01 T00251028  RH  068%=      5-min Rain = 0
KOD1 190724Z 34029G34KT 03/M03 A2998 RMK A01 T00251029  RH  067%=      5-min Rain = 0
KOD1 190725Z 34028G34KT 03/M03 A2998 RMK A01 T00251029  RH  067%=      5-min Rain = 0
KOD1 190726Z 34030G36KT 03/M03 A2998 RMK A01 T00251030  RH  067%=      5-min Rain = 0
KOD1 190727Z 35028G33KT 03/M03 A2999 RMK A01 T00251030  RH  067%=      5-min Rain = 0
KOD1 190728Z 34029G35KT 03/M03 A2999 RMK A01 T00251030  RH  067%=      5-min Rain = 0
KOD1 190729Z 34024G31KT 02/M03 A2999 RMK A01 T00241029  RH  068%=      5-min Rain = 0
KOD1 190730Z 34023KT 02/M03 A2999 RMK A01 T00241029  RH  068%=      5-min Rain = 0
KOD1 190731Z 34021G26KT 02/M03 A2999 RMK A01 T00241028  RH  068%=      5-min Rain = 0
KOD1 190732Z 35018KT 02/M03 A2999 RMK A01 T00241027  RH  069%=      5-min Rain = 0
KOD1 190733Z 34018KT 02/M03 A2999 RMK A01 T00241027  RH  069%=      5-min Rain = 0
KOD1 190734Z 34018G24KT 02/M03 A2999 RMK A01 T00241027  RH  069%=      5-min Rain = 0
KOD1 190735Z 34020KT 02/M03 A2999 RMK A01 T00241027  RH  069%=      5-min Rain = 0
KOD1 190736Z 34018KT 02/M03 A2999 RMK A01 T00241027  RH  069%=      5-min Rain = 0
KOD1 190737Z 34018G25KT 02/M03 A2999 RMK A01 T00241026  RH  069%=      5-min Rain = 0
KOD1 190738Z 34022KT 02/M03 A2999 RMK A01 T00241027  RH  069%=      5-min Rain = 0
KOD1 190739Z 34017G22KT 02/M03 A2999 RMK A01 T00231026  RH  070%=      5-min Rain = 0
KOD1 190740Z 34018G24KT 02/M03 A30 RMK A01 T00241026  RH  070%=      5-min Rain = 0
KOD1 190741Z 34020G26KT 02/M03 A2999 RMK A01 T00231025  RH  070%=      5-min Rain = 0
KOD1 190742Z 34020KT 02/M03 A30 RMK A01 T00231025  RH  071%=      5-min Rain = 0
KOD1 190743Z 34017KT 02/M02 A30 RMK A01 T00231024  RH  071%=      5-min Rain = 0
KOD1 190744Z 34017G22KT 02/M02 A30 RMK A01 T00231023  RH  072%=      5-min Rain = 0
KOD1 190745Z 34016KT 02/M02 A30 RMK A01 T00221023  RH  072%=      5-min Rain = 0
KOD1 190746Z 34016KT 02/M02 A30 RMK A01 T00221022  RH  072%=      5-min Rain = 0
KOD1 190747Z 33019G24KT 02/M02 A30 RMK A01 T00221022  RH  073%=      5-min Rain = 0
KOD1 190748Z 33024G30KT 02/M02 A30 RMK A01 T00221022  RH  073%=      5-min Rain = 0
KOD1 190749Z 33024G29KT 02/M02 A30 RMK A01 T00211023  RH  073%=      5-min Rain = 0
KOD1 190750Z 33025G30KT 02/M03 A30 RMK A01 T00211025  RH  072%=      5-min Rain = 0
KOD1 190751Z 34025KT 02/M03 A30 RMK A01 T00201027  RH  071%=      5-min Rain = 0
KOD1 190752Z 34024G29KT 02/M03 A30 RMK A01 T00201028  RH  071%=      5-min Rain = 0
KOD1 190753Z 33021G27KT 02/M03 A3001 RMK A01 T00201028  RH  071%=      5-min Rain = 0
KOD1 190754Z 33021G28KT 02/M03 A3001 RMK A01 T00201028  RH  070%=      5-min Rain = 0
KOD1 190755Z 33029G35KT 02/M03 A30 RMK A01 T00201031  RH  069%=      5-min Rain = 0
KOD1 190756Z 33028G37KT 02/M03 A3001 RMK A01 T00201033  RH  068%=      5-min Rain = 0
KOD1 190757Z 34022G27KT 02/M03 A3001 RMK A01 T00201032  RH  068%=      5-min Rain = 0
KOD1 190758Z 33027G35KT 02/M03 A3001 RMK A01 T00201033  RH  068%=      5-min Rain = 0
KOD1 190759Z 34029KT 02/M03 A3001 RMK A01 T00201034  RH  067%=      5-min Rain = 0
KOD1 190800Z 34025G30KT 02/M03 A3001 RMK A01 T00201034  RH  067%=      5-min Rain = 0
KOD1 190801Z 34021G28KT 02/M03 A3001 RMK A01 T00201033  RH  068%=      5-min Rain = 0
KOD1 190802Z 34024KT 02/M03 A3002 RMK A01 T00201034  RH  067%=      5-min Rain = 0
KOD1 190803Z 34027G34KT 02/M03 A3002 RMK A01 T00201034  RH  067%=      5-min Rain = 0
KOD1 190804Z 34026G31KT 02/M03 A3002 RMK A01 T00201034  RH  067%=      5-min Rain = 0
KOD1 190805Z 33024KT 02/M03 A3002 RMK A01 T00201034  RH  068%=      5-min Rain = 0
KOD1 190806Z 33023G28KT 02/M03 A3002 RMK A01 T00191033  RH  068%=      5-min Rain = 0
KOD1 190807Z 33024G29KT 02/M03 A3002 RMK A01 T00191034  RH  068%=      5-min Rain = 0
KOD1 190808Z 34024G29KT 02/M03 A3002 RMK A01 T00191034  RH  068%=      5-min Rain = 0
KOD1 190809Z 34021KT 02/M03 A3002 RMK A01 T00191034  RH  068%=      5-min Rain = 0
KOD1 190810Z 33021G28KT 02/M03 A3002 RMK A01 T00191034  RH  068%=      5-min Rain = 0
KOD1 190811Z 33026G34KT 02/M04 A3002 RMK A01 T00191035  RH  068%=      5-min Rain = 0
KOD1 190812Z 33026G33KT 02/M04 A3002 RMK A01 T00191035  RH  068%=      5-min Rain = 0
KOD1 190813Z 34021G28KT 02/M03 A3003 RMK A01 T00191034  RH  068%=      5-min Rain = 0
KOD1 190814Z 34025G31KT 02/M04 A3003 RMK A01 T00191035  RH  068%=      5-min Rain = 0
KOD1 190815Z 34021KT 02/M03 A3003 RMK A01 T00191034  RH  068%=      5-min Rain = 0
KOD1 190816Z 34019G26KT 02/M03 A3003 RMK A01 T00191034  RH  068%=      5-min Rain = 0
KOD1 190817Z 34019KT 02/M03 A3003 RMK A01 T00191034  RH  068%=      5-min Rain = 0
KOD1 190818Z 33020G26KT 02/M03 A3003 RMK A01 T00191034  RH  068%=      5-min Rain = 0
KOD1 190819Z 34026G32KT 02/M04 A3003 RMK A01 T00191035  RH  067%=      5-min Rain = 0
KOD1 190820Z 34026G31KT 02/M04 A3003 RMK A01 T00191036  RH  067%=      5-min Rain = 0
KOD1 190821Z 34025KT 02/M04 A3003 RMK A01 T00191036  RH  067%=      5-min Rain = 0
KOD1 190822Z 33022G28KT 02/M04 A3003 RMK A01 T00191035  RH  067%=      5-min Rain = 0
KOD1 190823Z 34020KT 02/M04 A3003 RMK A01 T00191035  RH  068%=      5-min Rain = 0
KOD1 190824Z 34023G28KT 02/M04 A3003 RMK A01 T00191035  RH  068%=      5-min Rain = 0
KOD1 190825Z 34023KT 02/M04 A3003 RMK A01 T00191035  RH  067%=      5-min Rain = 0
KOD1 190826Z 34024G29KT 02/M04 A3003 RMK A01 T00191035  RH  067%=      5-min Rain = 0
KOD1 190827Z 34024G29KT 02/M04 A3003 RMK A01 T00191035  RH  067%=      5-min Rain = 0
KOD1 190828Z 34027G32KT 02/M04 A3004 RMK A01 T00191036  RH  067%=      5-min Rain = 0
KOD1 190829Z 34027G32KT 02/M04 A3003 RMK A01 T00191036  RH  067%=      5-min Rain = 0
KOD1 190830Z 35028KT 02/M04 A3004 RMK A01 T00191036  RH  067%=      5-min Rain = 0
KOD1 190831Z 35024G29KT 02/M04 A3004 RMK A01 T00191035  RH  067%=      5-min Rain = 0
KOD1 190832Z 34022G27KT 02/M04 A3004 RMK A01 T00191035  RH  067%=      5-min Rain = 0
KOD1 190833Z 34023G29KT 02/M04 A3004 RMK A01 T00191035  RH  068%=      5-min Rain = 0
KOD1 190834Z 34020G27KT 02/M04 A3004 RMK A01 T00181035  RH  068%=      5-min Rain = 0
KOD1 190835Z 34023G28KT 02/M04 A3004 RMK A01 T00181035  RH  068%=      5-min Rain = 0
KOD1 190836Z 34022G28KT 02/M04 A3004 RMK A01 T00181035  RH  068%=      5-min Rain = 0
KOD1 190837Z 34023G28KT 02/M04 A3004 RMK A01 T00181035  RH  068%=      5-min Rain = 0
KOD1 190838Z 34023G29KT 02/M04 A3004 RMK A01 T00181035  RH  068%=      5-min Rain = 0
KOD1 190839Z 34024KT 02/M04 A3004 RMK A01 T00181035  RH  068%=      5-min Rain = 0
KOD1 190840Z 34024G30KT 02/M04 A3004 RMK A01 T00181035  RH  068%=      5-min Rain = 0
KOD1 190841Z 34022KT 02/M03 A3004 RMK A01 T00181034  RH  068%=      5-min Rain = 0
KOD1 190842Z 35019G24KT 02/M03 A3004 RMK A01 T00181034  RH  068%=      5-min Rain = 0
KOD1 190843Z 34021G27KT 02/M03 A3004 RMK A01 T00181034  RH  068%=      5-min Rain = 0
KOD1 190844Z 34022KT 02/M04 A3004 RMK A01 T00181035  RH  067%=      5-min Rain = 0
KOD1 190845Z 34017KT 02/M04 A3004 RMK A01 T00181035  RH  068%=      5-min Rain = 0
KOD1 190846Z 33018KT 02/M03 A3004 RMK A01 T00181034  RH  068%=      5-min Rain = 0
KOD1 190847Z 33021KT 02/M04 A3004 RMK A01 T00181035  RH  067%=      5-min Rain = 0
KOD1 190848Z 33022KT 02/M04 A3004 RMK A01 T00181037  RH  067%=      5-min Rain = 0
KOD1 190849Z 34020KT 02/M04 A3004 RMK A01 T00181036  RH  067%=      5-min Rain = 0
KOD1 190850Z 33017KT 02/M04 A3004 RMK A01 T00181036  RH  067%=      5-min Rain = 0
KOD1 190851Z 33018KT 02/M04 A3004 RMK A01 T00181036  RH  067%=      5-min Rain = 0
KOD1 190852Z 34017G22KT 02/M04 A3004 RMK A01 T00181036  RH  067%=      5-min Rain = 0
KOD1 190853Z 33020KT 02/M04 A3004 RMK A01 T00181037  RH  067%=      5-min Rain = 0
KOD1 190854Z 34018KT 02/M04 A3005 RMK A01 T00181036  RH  067%=      5-min Rain = 0
KOD1 190855Z 34017G22KT 02/M04 A3005 RMK A01 T00181036  RH  067%=      5-min Rain = 0
KOD1 190856Z 35015KT 02/M04 A3005 RMK A01 T00181035  RH  068%=      5-min Rain = 0
KOD1 190857Z 34017G22KT 02/M03 A3005 RMK A01 T00181034  RH  068%=      5-min Rain = 0
KOD1 190858Z 33021G27KT 02/M04 A3005 RMK A01 T00181036  RH  067%=      5-min Rain = 0
KOD1 190859Z 33025G32KT 02/M04 A3005 RMK A01 T00181037  RH  067%=      5-min Rain = 0
KOD1 190900Z 35024G29KT 02/M04 A3005 RMK A01 T00181038  RH  066%=      5-min Rain = 0
KOD1 190901Z 34026KT 02/M04 A3005 RMK A01 T00181039  RH  066%=      5-min Rain = 0
KOD1 190902Z 34022G29KT 02/M04 A3005 RMK A01 T00181038  RH  066%=      5-min Rain = 0
KOD1 190903Z 34020KT 02/M04 A3005 RMK A01 T00181038  RH  066%=      5-min Rain = 0
KOD1 190904Z 34019KT 02/M04 A3005 RMK A01 T00181038  RH  067%=      5-min Rain = 0
KOD1 190905Z 34019G25KT 02/M04 A3005 RMK A01 T00181038  RH  067%=      5-min Rain = 0
KOD1 190906Z 34021G27KT 02/M04 A3005 RMK A01 T00181038  RH  066%=      5-min Rain = 0
KOD1 190907Z 35019G25KT 02/M04 A3005 RMK A01 T00181038  RH  066%=      5-min Rain = 0
KOD1 190908Z 34021G28KT 02/M04 A3006 RMK A01 T00181038  RH  067%=      5-min Rain = 0
KOD1 190909Z 34020KT 02/M04 A3006 RMK A01 T00181038  RH  066%=      5-min Rain = 0
KOD1 190910Z 34016KT 02/M04 A3006 RMK A01 T00181037  RH  067%=      5-min Rain = 0
KOD1 190911Z 33020G25KT 02/M04 A3006 RMK A01 T00181037  RH  067%=      5-min Rain = 0
KOD1 190912Z 34022KT 02/M04 A3006 RMK A01 T00181037  RH  067%=      5-min Rain = 0
KOD1 190913Z 34019KT 02/M04 A3006 RMK A01 T00181037  RH  067%=      5-min Rain = 0
KOD1 190914Z 34019G26KT 02/M04 A3006 RMK A01 T00181037  RH  067%=      5-min Rain = 0
KOD1 190915Z 34020G26KT 02/M04 A3006 RMK A01 T00181037  RH  067%=      5-min Rain = 0
KOD1 190916Z 34024KT 02/M04 A3006 RMK A01 T00181037  RH  067%=      5-min Rain = 0
KOD1 190917Z 33021G27KT 02/M04 A3006 RMK A01 T00181036  RH  067%=      5-min Rain = 0
KOD1 190918Z 34023G28KT 02/M04 A3006 RMK A01 T00181037  RH  067%=      5-min Rain = 0
KOD1 190919Z 34023G28KT 02/M04 A3006 RMK A01 T00181036  RH  067%=      5-min Rain = 0
KOD1 190920Z 34018KT 02/M04 A3006 RMK A01 T00181036  RH  068%=      5-min Rain = 0
KOD1 190921Z 34018KT 02/M04 A3006 RMK A01 T00181036  RH  068%=      5-min Rain = 0
KOD1 190922Z 34014KT 02/M04 A3007 RMK A01 T00181035  RH  068%=      5-min Rain = 0
KOD1 190923Z 34018KT 02/M04 A3007 RMK A01 T00181035  RH  068%=      5-min Rain = 0
KOD1 190924Z 34017KT 02/M04 A3007 RMK A01 T00181035  RH  068%=      5-min Rain = 0
KOD1 190925Z 34017G22KT 02/M04 A3007 RMK A01 T00181035  RH  068%=      5-min Rain = 0
KOD1 190926Z 34021KT 02/M04 A3007 RMK A01 T00181035  RH  068%=      5-min Rain = 0
KOD1 190927Z 34016KT 02/M04 A3007 RMK A01 T00181035  RH  068%=      5-min Rain = 0
KOD1 190928Z 34015KT 02/M03 A3007 RMK A01 T00181034  RH  068%=      5-min Rain = 0
KOD1 190929Z 34016KT 02/M03 A3007 RMK A01 T00181034  RH  068%=      5-min Rain = 0
KOD1 190930Z 34019KT 02/M03 A3007 RMK A01 T00181034  RH  068%=      5-min Rain = 0
KOD1 190931Z 34019G24KT 02/M04 A3007 RMK A01 T00181035  RH  068%=      5-min Rain = 0
KOD1 190932Z 34021KT 02/M04 A3007 RMK A01 T00181035  RH  068%=      5-min Rain = 0
KOD1 190933Z 34020KT 02/M04 A3007 RMK A01 T00181035  RH  068%=      5-min Rain = 0
KOD1 190934Z 34018KT 02/M04 A3007 RMK A01 T00181035  RH  068%=      5-min Rain = 0
KOD1 190935Z 34020KT 02/M04 A3007 RMK A01 T00181035  RH  068%=      5-min Rain = 0
KOD1 190936Z 34018KT 02/M03 A3007 RMK A01 T00191034  RH  068%=      5-min Rain = 0
KOD1 190937Z 34014KT 02/M03 A3008 RMK A01 T00191034  RH  068%=      5-min Rain = 0
KOD1 190938Z 34014KT 02/M03 A3008 RMK A01 T00181034  RH  068%=      5-min Rain = 0
KOD1 190939Z 33021G26KT 02/M04 A3008 RMK A01 T00181035  RH  068%=      5-min Rain = 0
KOD1 190940Z 33019G25KT 02/M04 A3008 RMK A01 T00181035  RH  068%=      5-min Rain = 0
KOD1 190941Z 34020G27KT 02/M04 A3008 RMK A01 T00181035  RH  068%=      5-min Rain = 0
KOD1 190942Z 34022G27KT 02/M04 A3008 RMK A01 T00181036  RH  067%=      5-min Rain = 0
KOD1 190943Z 34023G28KT 02/M04 A3008 RMK A01 T00191036  RH  067%=      5-min Rain = 0
KOD1 190944Z 34021G26KT 02/M04 A3008 RMK A01 T00181036  RH  067%=      5-min Rain = 0
KOD1 190945Z 34022KT 02/M04 A3008 RMK A01 T00181036  RH  067%=      5-min Rain = 0
KOD1 190946Z 33020KT 02/M04 A3008 RMK A01 T00181036  RH  067%=      5-min Rain = 0
KOD1 190947Z 34021KT 02/M04 A3008 RMK A01 T00181036  RH  067%=      5-min Rain = 0
KOD1 190948Z 34021KT 02/M04 A3008 RMK A01 T00181036  RH  067%=      5-min Rain = 0
KOD1 190949Z 34020KT 02/M04 A3008 RMK A01 T00181036  RH  067%=      5-min Rain = 0
KOD1 190950Z 34019KT 02/M04 A3009 RMK A01 T00181035  RH  068%=      5-min Rain = 0
KOD1 190951Z 34016KT 02/M04 A3009 RMK A01 T00181035  RH  068%=      5-min Rain = 0
KOD1 190952Z 34017G22KT 02/M04 A3009 RMK A01 T00181035  RH  068%=      5-min Rain = 0
KOD1 190953Z 34019KT 02/M04 A3009 RMK A01 T00181035  RH  068%=      5-min Rain = 0
KOD1 190954Z 33016KT 02/M03 A3009 RMK A01 T00181034  RH  068%=      5-min Rain = 0
KOD1 190955Z 33017G24KT 02/M03 A3009 RMK A01 T00181034  RH  068%=      5-min Rain = 0
KOD1 190956Z 33027G34KT 02/M04 A3009 RMK A01 T00181037  RH  067%=      5-min Rain = 0
KOD1 190957Z 34027G32KT 02/M04 A3009 RMK A01 T00181039  RH  066%=      5-min Rain = 0
KOD1 190958Z 34026G34KT 02/M04 A3009 RMK A01 T00171039  RH  066%=      5-min Rain = 0
KOD1 190959Z 34027G37KT 02/M04 A3009 RMK A01 T00171040  RH  066%=      5-min Rain = 0
KOD1 191000Z 34024G29KT 02/M04 A3009 RMK A01 T00171039  RH  066%=      5-min Rain = 0
KOD1 191001Z 34021G26KT 02/M04 A3009 RMK A01 T00171039  RH  066%=      5-min Rain = 0
KOD1 191002Z 34026G34KT 02/M04 A3009 RMK A01 T00161040  RH  066%=      5-min Rain = 0
KOD1 191003Z 34027KT 02/M04 A3009 RMK A01 T00161041  RH  066%=      5-min Rain = 0
KOD1 191004Z 34025KT 02/M04 A3009 RMK A01 T00161041  RH  066%=      5-min Rain = 0
KOD1 191005Z 34027G34KT 02/M04 A3009 RMK A01 T00161041  RH  066%=      5-min Rain = 0
KOD1 191006Z 34018G23KT 02/M04 A3009 RMK A01 T00161040  RH  066%=      5-min Rain = 0
KOD1 191007Z 34021KT 02/M04 A3009 RMK A01 T00161040  RH  067%=      5-min Rain = 0
KOD1 191008Z 34023KT 02/M04 A3009 RMK A01 T00161040  RH  067%=      5-min Rain = 0
KOD1 191009Z 34021G28KT 02/M04 A3009 RMK A01 T00151040  RH  067%=      5-min Rain = 0
KOD1 191010Z 34023KT 02/M04 A3009 RMK A01 T00151040  RH  067%=      5-min Rain = 0
KOD1 191011Z 34022KT 02/M04 A3009 RMK A01 T00151039  RH  067%=      5-min Rain = 0
KOD1 191012Z 34022KT 02/M04 A301 RMK A01 T00151039  RH  067%=      5-min Rain = 0
KOD1 191013Z 34020KT 02/M04 A301 RMK A01 T00151039  RH  067%=      5-min Rain = 0
KOD1 191014Z 34021G26KT 02/M04 A301 RMK A01 T00151039  RH  068%=      5-min Rain = 0
KOD1 191015Z 34021KT 02/M04 A301 RMK A01 T00151039  RH  068%=      5-min Rain = 0
KOD1 191016Z 34017KT 02/M04 A301 RMK A01 T00151038  RH  068%=      5-min Rain = 0
KOD1 191017Z 34019KT 02/M04 A301 RMK A01 T00151038  RH  068%=      5-min Rain = 0
KOD1 191018Z 34016KT 02/M04 A301 RMK A01 T00151038  RH  068%=      5-min Rain = 0
KOD1 191019Z 34019G24KT 02/M04 A301 RMK A01 T00151038  RH  068%=      5-min Rain = 0
KOD1 191020Z 34021KT 02/M04 A301 RMK A01 T00151038  RH  068%=      5-min Rain = 0
KOD1 191021Z 34016G21KT 02/M04 A301 RMK A01 T00151038  RH  068%=      5-min Rain = 0
KOD1 191022Z 34017KT 02/M04 A301 RMK A01 T00151037  RH  068%=      5-min Rain = 0
KOD1 191023Z 34017KT 02/M04 A301 RMK A01 T00151037  RH  068%=      5-min Rain = 0
KOD1 191024Z 34017G22KT 02/M04 A301 RMK A01 T00151037  RH  068%=      5-min Rain = 0
KOD1 191025Z 34013G19KT 02/M04 A301 RMK A01 T00151037  RH  069%=      5-min Rain = 0
KOD1 191026Z 34020G28KT 02/M04 A301 RMK A01 T00151038  RH  068%=      5-min Rain = 0
KOD1 191027Z 34023G28KT 01/M04 A301 RMK A01 T00141040  RH  067%=      5-min Rain = 0
KOD1 191028Z 34021KT 01/M04 A301 RMK A01 T00141042  RH  066%=      5-min Rain = 0
KOD1 191029Z 34019KT 01/M04 A301 RMK A01 T00141042  RH  066%=      5-min Rain = 0
KOD1 191030Z 34021G26KT 01/M04 A3011 RMK A01 T00141042  RH  066%=      5-min Rain = 0
KOD1 191031Z 34025G30KT 01/M04 A301 RMK A01 T00141043  RH  066%=      5-min Rain = 0
KOD1 191032Z 35021G26KT 01/M04 A3011 RMK A01 T00141043  RH  066%=      5-min Rain = 0
KOD1 191033Z 34023G28KT 01/M04 A3011 RMK A01 T00141043  RH  066%=      5-min Rain = 0
KOD1 191034Z 35021G26KT 01/M05 A3011 RMK A01 T00141045  RH  065%=      5-min Rain = 0
KOD1 191035Z 34021G26KT 01/M05 A3011 RMK A01 T00131045  RH  065%=      5-min Rain = 0
KOD1 191036Z 34022G27KT 01/M05 A3011 RMK A01 T00131046  RH  065%=      5-min Rain = 0
KOD1 191037Z 34024KT 01/M05 A301 RMK A01 T00131046  RH  065%=      5-min Rain = 0
KOD1 191038Z 34021KT 01/M05 A3011 RMK A01 T00131047  RH  065%=      5-min Rain = 0
KOD1 191039Z 34020KT 01/M05 A3011 RMK A01 T00121046  RH  065%=      5-min Rain = 0
KOD1 191040Z 35021KT 01/M05 A3011 RMK A01 T00121046  RH  065%=      5-min Rain = 0
KOD1 191041Z 35022KT 01/M05 A3011 RMK A01 T00121047  RH  064%=      5-min Rain = 0
KOD1 191042Z 35021G28KT 01/M05 A3011 RMK A01 T00121048  RH  064%=      5-min Rain = 0
KOD1 191043Z 34023G29KT 01/M05 A3011 RMK A01 T00111049  RH  064%=      5-min Rain = 0
KOD1 191044Z 34024G31KT 01/M05 A3011 RMK A01 T00111049  RH  064%=      5-min Rain = 0
KOD1 191045Z 34024G29KT 01/M05 A301 RMK A01 T00111050  RH  064%=      5-min Rain = 0
KOD1 191046Z 35023G28KT 01/M05 A3011 RMK A01 T00101050  RH  064%=      5-min Rain = 0
KOD1 191047Z 35023G28KT 01/M05 A3011 RMK A01 T00101050  RH  064%=      5-min Rain = 0
KOD1 191048Z 34026KT 01/M05 A3011 RMK A01 T00101050  RH  064%=      5-min Rain = 0
KOD1 191049Z 34022G27KT 01/M05 A3011 RMK A01 T00101050  RH  065%=      5-min Rain = 0
KOD1 191050Z 34019KT 01/M05 A3011 RMK A01 T00091049  RH  065%=      5-min Rain = 0
KOD1 191051Z 35019KT 01/M05 A3011 RMK A01 T00091049  RH  065%=      5-min Rain = 0
KOD1 191052Z 34019KT 01/M05 A3011 RMK A01 T00091049  RH  065%=      5-min Rain = 0
KOD1 191053Z 34024KT 01/M05 A3011 RMK A01 T00091048  RH  066%=      5-min Rain = 0
KOD1 191054Z 34021KT 01/M05 A3011 RMK A01 T00091048  RH  066%=      5-min Rain = 0
KOD1 191055Z 34021G26KT 01/M05 A3011 RMK A01 T00081047  RH  066%=      5-min Rain = 0
KOD1 191056Z 34020G25KT 01/M05 A3011 RMK A01 T00081047  RH  066%=      5-min Rain = 0
KOD1 191057Z 34021G26KT 01/M05 A3011 RMK A01 T00081047  RH  066%=      5-min Rain = 0
KOD1 191058Z 34019G24KT 01/M05 A3011 RMK A01 T00081046  RH  067%=      5-min Rain = 0
KOD1 191059Z 34017KT 01/M05 A3012 RMK A01 T00081046  RH  067%=      5-min Rain = 0
KOD1 191100Z 34017G22KT 01/M05 A3012 RMK A01 T00081045  RH  068%=      5-min Rain = 0
KOD1 191101Z 33019G28KT 01/M05 A3012 RMK A01 T00081045  RH  067%=      5-min Rain = 0
KOD1 191102Z 33020G25KT 01/M05 A3012 RMK A01 T00071049  RH  066%=      5-min Rain = 0
KOD1 191103Z 34021G27KT 01/M05 A3012 RMK A01 T00071050  RH  066%=      5-min Rain = 0
KOD1 191104Z 34021G26KT 01/M05 A3012 RMK A01 T00061051  RH  065%=      5-min Rain = 0
KOD1 191105Z 34023KT 01/M05 A3012 RMK A01 T00061052  RH  065%=      5-min Rain = 0
KOD1 191106Z 34024G29KT 01/M05 A3012 RMK A01 T00061053  RH  065%=      5-min Rain = 0
KOD1 191107Z 34022G27KT 01/M05 A3012 RMK A01 T00051053  RH  065%=      5-min Rain = 0
KOD1 191108Z 34018G24KT 01/M05 A3012 RMK A01 T00051053  RH  065%=      5-min Rain = 0
KOD1 191109Z 34017G23KT 01/M05 A3012 RMK A01 T00051054  RH  065%=      5-min Rain = 0
KOD1 191110Z 34019G24KT 00/M05 A3012 RMK A01 T00041054  RH  065%=      5-min Rain = 0
KOD1 191111Z 34021G26KT 00/M06 A3012 RMK A01 T00041055  RH  065%=      5-min Rain = 0
KOD1 191112Z 34016KT 00/M06 A3012 RMK A01 T00041055  RH  065%=      5-min Rain = 0
KOD1 191113Z 34020G26KT 00/M06 A3012 RMK A01 T00031056  RH  064%=      5-min Rain = 0
KOD1 191114Z 34021G26KT 00/M06 A3012 RMK A01 T00031057  RH  064%=      5-min Rain = 0
KOD1 191115Z 34020KT 00/M06 A3012 RMK A01 T00031057  RH  064%=      5-min Rain = 0
KOD1 191116Z 34027G33KT 00/M06 A3012 RMK A01 T00031058  RH  064%=      5-min Rain = 0
KOD1 191117Z 34023G30KT 00/M06 A3012 RMK A01 T00031059  RH  063%=      5-min Rain = 0
KOD1 191118Z 34021KT 00/M06 A3013 RMK A01 T00031058  RH  064%=      5-min Rain = 0
KOD1 191119Z 34018G24KT 00/M06 A3013 RMK A01 T00021058  RH  064%=      5-min Rain = 0
KOD1 191120Z 34020G26KT 00/M06 A3013 RMK A01 T00021058  RH  064%=      5-min Rain = 0
KOD1 191121Z 34025KT 00/M06 A3013 RMK A01 T00021059  RH  064%=      5-min Rain = 0
KOD1 191122Z 34022G29KT 00/M06 A3013 RMK A01 T00011059  RH  064%=      5-min Rain = 0
KOD1 191123Z 34024G29KT 00/M06 A3013 RMK A01 T00011059  RH  064%=      5-min Rain = 0
KOD1 191124Z 34025G30KT 00/M06 A3013 RMK A01 T00011059  RH  064%=      5-min Rain = 0
KOD1 191125Z 35022G27KT 00/M06 A3013 RMK A01 T00011059  RH  064%=      5-min Rain = 0
KOD1 191126Z 34020G25KT 00/M06 A3013 RMK A01 T00011059  RH  064%=      5-min Rain = 0
KOD1 191127Z 34018G25KT 00/06 A3013 RMK A01 T00000-59  RH  065%=      5-min Rain = 0
KOD1 191128Z 35018G25KT 00/06 A3013 RMK A01 T00-00-59  RH  065%=      5-min Rain = 0
KOD1 191129Z 34022KT 00/06 A3013 RMK A01 T00-00-59  RH  065%=      5-min Rain = 0
KOD1 191130Z 34020KT M00/M06 A3014 RMK A01 T10011059  RH  065%=      5-min Rain = 0
KOD1 191131Z 34020KT M00/M06 A3014 RMK A01 T10011059  RH  065%=      5-min Rain = 0
KOD1 191132Z 34019KT M00/M06 A3014 RMK A01 T10011059  RH  065%=      5-min Rain = 0
KOD1 191133Z 34018KT M00/M06 A3014 RMK A01 T10011059  RH  065%=      5-min Rain = 0
KOD1 191134Z 34017KT M00/M06 A3014 RMK A01 T10011059  RH  065%=      5-min Rain = 0
KOD1 191135Z 34016KT M00/M06 A3014 RMK A01 T10021058  RH  066%=      5-min Rain = 0
KOD1 191136Z 34018KT M00/M06 A3014 RMK A01 T10021058  RH  066%=      5-min Rain = 0
KOD1 191137Z 34019KT M00/M06 A3014 RMK A01 T10021057  RH  066%=      5-min Rain = 0
KOD1 191138Z 34019KT M00/M06 A3014 RMK A01 T10021057  RH  066%=      5-min Rain = 0
KOD1 191139Z 34019G24KT M00/M06 A3014 RMK A01 T10021057  RH  067%=      5-min Rain = 0
KOD1 191140Z 34019G24KT M00/M06 A3014 RMK A01 T10021056  RH  067%=      5-min Rain = 0
KOD1 191141Z 34018KT M00/M06 A3014 RMK A01 T10021056  RH  067%=      5-min Rain = 0
KOD1 191142Z 34016KT M00/M06 A3014 RMK A01 T10031055  RH  068%=      5-min Rain = 0
KOD1 191143Z 34016KT M00/M06 A3014 RMK A01 T10031055  RH  068%=      5-min Rain = 0
KOD1 191144Z 33019KT M00/M06 A3014 RMK A01 T10031055  RH  068%=      5-min Rain = 0
KOD1 191145Z 34017G24KT M00/M06 A3014 RMK A01 T10031055  RH  068%=      5-min Rain = 0
KOD1 191146Z 33020KT M00/M06 A3014 RMK A01 T10031055  RH  068%=      5-min Rain = 0
KOD1 191147Z 34018G23KT M00/M06 A3014 RMK A01 T10031055  RH  068%=      5-min Rain = 0
KOD1 191148Z 33019G24KT M00/M06 A3014 RMK A01 T10031055  RH  068%=      5-min Rain = 0
KOD1 191149Z 34016KT M00/M06 A3014 RMK A01 T10041055  RH  068%=      5-min Rain = 0
KOD1 191150Z 33016KT M00/M06 A3014 RMK A01 T10041055  RH  069%=      5-min Rain = 0
KOD1 191151Z 33015KT M00/M06 A3014 RMK A01 T10041055  RH  069%=      5-min Rain = 0
KOD1 191152Z 33023G29KT M01/M06 A3014 RMK A01 T10051056  RH  068%=      5-min Rain = 0
KOD1 191153Z 33020G26KT M00/M06 A3014 RMK A01 T10041057  RH  068%=      5-min Rain = 0
KOD1 191154Z 34019G25KT M00/M06 A3015 RMK A01 T10041057  RH  068%=      5-min Rain = 0
KOD1 191155Z 34018G23KT M01/M06 A3015 RMK A01 T10051057  RH  068%=      5-min Rain = 0
KOD1 191156Z 34019KT M01/M06 A3015 RMK A01 T10051057  RH  068%=      5-min Rain = 0
KOD1 191157Z 34016G21KT M01/M06 A3015 RMK A01 T10051057  RH  068%=      5-min Rain = 0
KOD1 191158Z 34018KT M01/M06 A3015 RMK A01 T10051057  RH  068%=      5-min Rain = 0
KOD1 191159Z 34017KT M01/M06 A3015 RMK A01 T10051057  RH  068%=      5-min Rain = 0
KOD1 191200Z 34018KT M01/M06 A3015 RMK A01 T10051057  RH  068%=      5-min Rain = 0
KOD1 191201Z 34020G26KT M01/M06 A3015 RMK A01 T10051058  RH  067%=      5-min Rain = 0
KOD1 191202Z 35020KT M01/M06 A3015 RMK A01 T10051058  RH  067%=      5-min Rain = 0
KOD1 191203Z 35019KT M01/M06 A3015 RMK A01 T10051058  RH  068%=      5-min Rain = 0
KOD1 191204Z 34017G22KT M01/M06 A3015 RMK A01 T10051057  RH  068%=      5-min Rain = 0
KOD1 191205Z 34019KT M01/M06 A3015 RMK A01 T10061057  RH  068%=      5-min Rain = 0
KOD1 191206Z 34018G24KT M01/M06 A3015 RMK A01 T10061058  RH  068%=      5-min Rain = 0
KOD1 191207Z 34020KT M01/M06 A3015 RMK A01 T10061059  RH  068%=      5-min Rain = 0
KOD1 191208Z 35020G25KT M01/M06 A3015 RMK A01 T10061059  RH  067%=      5-min Rain = 0
KOD1 191209Z 34016KT M01/M06 A3016 RMK A01 T10061058  RH  068%=      5-min Rain = 0
KOD1 191210Z 34020G27KT M01/M06 A3015 RMK A01 T10071058  RH  068%=      5-min Rain = 0
KOD1 191211Z 34019G25KT M01/M06 A3016 RMK A01 T10071059  RH  068%=      5-min Rain = 0
KOD1 191212Z 34021KT M01/M06 A3016 RMK A01 T10071059  RH  068%=      5-min Rain = 0
KOD1 191213Z 34018G23KT M01/M06 A3016 RMK A01 T10071059  RH  068%=      5-min Rain = 0
KOD1 191214Z 34020G25KT M01/M06 A3016 RMK A01 T10071059  RH  068%=      5-min Rain = 0
KOD1 191215Z 34021KT M01/M06 A3016 RMK A01 T10071060  RH  068%=      5-min Rain = 0
KOD1 191216Z 34019G24KT M01/M06 A3016 RMK A01 T10071059  RH  068%=      5-min Rain = 0
KOD1 191217Z 34021KT M01/M06 A3016 RMK A01 T10071059  RH  068%=      5-min Rain = 0
KOD1 191218Z 34020KT M01/M06 A3016 RMK A01 T10071059  RH  068%=      5-min Rain = 0
KOD1 191219Z 34021G26KT M01/M06 A3016 RMK A01 T10071060  RH  068%=      5-min Rain = 0
KOD1 191220Z 34020KT M01/M06 A3016 RMK A01 T10071060  RH  068%=      5-min Rain = 0
KOD1 191221Z 34020KT M01/M06 A3016 RMK A01 T10071060  RH  068%=      5-min Rain = 0
KOD1 191222Z 34016G22KT M01/M06 A3017 RMK A01 T10081059  RH  068%=      5-min Rain = 0
KOD1 191223Z 34016KT M01/M06 A3017 RMK A01 T10081059  RH  068%=      5-min Rain = 0
KOD1 191224Z 34017KT M01/M06 A3017 RMK A01 T10081059  RH  069%=      5-min Rain = 0
KOD1 191225Z 34017KT M01/M06 A3017 RMK A01 T10081059  RH  069%=      5-min Rain = 0
KOD1 191226Z 34016G22KT M01/M06 A3017 RMK A01 T10091059  RH  069%=      5-min Rain = 0
KOD1 191227Z 34016KT M01/M06 A3017 RMK A01 T10091058  RH  069%=      5-min Rain = 0
KOD1 191228Z 34017KT M01/M06 A3017 RMK A01 T10091058  RH  069%=      5-min Rain = 0
KOD1 191229Z 34015KT M01/M06 A3017 RMK A01 T10091058  RH  069%=      5-min Rain = 0
KOD1 191230Z 34014KT M01/M06 A3017 RMK A01 T10091058  RH  069%=      5-min Rain = 0
KOD1 191231Z 34014KT M01/M06 A3017 RMK A01 T10091058  RH  070%=      5-min Rain = 0
KOD1 191232Z 34013KT M01/M06 A3017 RMK A01 T10101057  RH  070%=      5-min Rain = 0
KOD1 191233Z 34014KT M01/M06 A3017 RMK A01 T10101057  RH  070%=      5-min Rain = 0
KOD1 191234Z 34013G18KT M01/M06 A3017 RMK A01 T10101057  RH  070%=      5-min Rain = 0
KOD1 191235Z 35015KT M01/M06 A3017 RMK A01 T10101057  RH  070%=      5-min Rain = 0
KOD1 191236Z 34016G21KT M01/M06 A3018 RMK A01 T10101058  RH  070%=      5-min Rain = 0
KOD1 191237Z 34012KT M01/M06 A3018 RMK A01 T10101057  RH  070%=      5-min Rain = 0
KOD1 191238Z 34013KT M01/M06 A3018 RMK A01 T10101057  RH  070%=      5-min Rain = 0
KOD1 191239Z 35013KT M01/M06 A3018 RMK A01 T10111057  RH  071%=      5-min Rain = 0
KOD1 191240Z 34015KT M01/M06 A3018 RMK A01 T10111057  RH  071%=      5-min Rain = 0
KOD1 191241Z 34014G19KT M01/M06 A3018 RMK A01 T10111057  RH  071%=      5-min Rain = 0
KOD1 191242Z 34016KT M01/M06 A3018 RMK A01 T10111057  RH  071%=      5-min Rain = 0
KOD1 191243Z 34015KT M01/M06 A3018 RMK A01 T10111057  RH  071%=      5-min Rain = 0
KOD1 191244Z 34011KT M01/M06 A3019 RMK A01 T10111057  RH  071%=      5-min Rain = 0
KOD1 191245Z 34013KT M01/M06 A3019 RMK A01 T10111057  RH  071%=      5-min Rain = 0
KOD1 191246Z 35013KT M01/M06 A3019 RMK A01 T10111057  RH  071%=      5-min Rain = 0
KOD1 191247Z 35011KT M01/M06 A3019 RMK A01 T10111057  RH  071%=      5-min Rain = 0
KOD1 191248Z 34011KT M01/M06 A3019 RMK A01 T10121057  RH  072%=      5-min Rain = 0
KOD1 191249Z 34013KT M01/M06 A3019 RMK A01 T10121057  RH  072%=      5-min Rain = 0
KOD1 191250Z 34012KT M01/M06 A3019 RMK A01 T10121056  RH  072%=      5-min Rain = 0
KOD1 191251Z 34010KT M01/M06 A3019 RMK A01 T10121056  RH  072%=      5-min Rain = 0
KOD1 191252Z 34012KT M01/M06 A3019 RMK A01 T10131056  RH  072%=      5-min Rain = 0
KOD1 191253Z 34013KT M01/M06 A3019 RMK A01 T10131056  RH  072%=      5-min Rain = 0
KOD1 191254Z 33012KT M01/M06 A3019 RMK A01 T10121056  RH  072%=      5-min Rain = 0
KOD1 191255Z 34012KT M01/M06 A3019 RMK A01 T10121056  RH  072%=      5-min Rain = 0
KOD1 191256Z 34010KT M01/M06 A3019 RMK A01 T10121056  RH  072%=      5-min Rain = 0
KOD1 191257Z 34011KT M01/M06 A3019 RMK A01 T10131056  RH  073%=      5-min Rain = 0
KOD1 191258Z 34010KT M01/M06 A3019 RMK A01 T10131055  RH  073%=      5-min Rain = 0
KOD1 191259Z 34011KT M01/M06 A302 RMK A01 T10131055  RH  073%=      5-min Rain = 0
KOD1 191300Z 34010KT M01/M06 A302 RMK A01 T10131055  RH  073%=      5-min Rain = 0
KOD1 191301Z 33010KT M01/M06 A302 RMK A01 T10131055  RH  073%=      5-min Rain = 0
KOD1 191302Z 34009KT M01/M06 A302 RMK A01 T10131055  RH  073%=      5-min Rain = 0
KOD1 191303Z 33011KT M01/M06 A302 RMK A01 T10141055  RH  073%=      5-min Rain = 0
KOD1 191304Z 33012KT M01/M06 A302 RMK A01 T10141055  RH  074%=      5-min Rain = 0
KOD1 191305Z 33011KT M01/M06 A302 RMK A01 T10131055  RH  073%=      5-min Rain = 0
KOD1 191306Z 33010KT M01/M05 A302 RMK A01 T10131054  RH  074%=      5-min Rain = 0
KOD1 191307Z 33010KT M01/M05 A302 RMK A01 T10141054  RH  074%=      5-min Rain = 0
KOD1 191308Z 33010KT M01/M05 A302 RMK A01 T10141054  RH  074%=      5-min Rain = 0
KOD1 191309Z 33009KT M01/M05 A302 RMK A01 T10141054  RH  074%=      5-min Rain = 0
KOD1 191310Z 33010KT M01/M05 A302 RMK A01 T10141054  RH  074%=      5-min Rain = 0
KOD1 191311Z 33013KT M01/M05 A302 RMK A01 T10141054  RH  074%=      5-min Rain = 0
KOD1 191312Z 33014KT M01/M06 A302 RMK A01 T10131055  RH  073%=      5-min Rain = 0
KOD1 191313Z 33014KT M01/M06 A302 RMK A01 T10131055  RH  073%=      5-min Rain = 0
KOD1 191314Z 33015KT M01/M06 A3021 RMK A01 T10121055  RH  073%=      5-min Rain = 0
KOD1 191315Z 33015KT M01/M06 A3021 RMK A01 T10121055  RH  073%=      5-min Rain = 0
KOD1 191316Z 33012KT M01/M05 A3021 RMK A01 T10121054  RH  073%=      5-min Rain = 0
KOD1 191317Z 33013KT M01/M05 A3021 RMK A01 T10121054  RH  073%=      5-min Rain = 0
KOD1 191318Z 34013KT M01/M05 A3021 RMK A01 T10131054  RH  074%=      5-min Rain = 0
KOD1 191319Z 33013KT M01/M05 A3021 RMK A01 T10131054  RH  073%=      5-min Rain = 0
KOD1 191320Z 34018KT M01/M06 A3021 RMK A01 T10131056  RH  073%=      5-min Rain = 0
KOD1 191321Z 34017G24KT M01/M06 A3021 RMK A01 T10131057  RH  072%=      5-min Rain = 0
KOD1 191322Z 34019KT M01/M06 A3021 RMK A01 T10131058  RH  071%=      5-min Rain = 0
KOD1 191323Z 34019G24KT M01/M06 A3021 RMK A01 T10121059  RH  071%=      5-min Rain = 0
KOD1 191324Z 34020KT M01/M06 A3021 RMK A01 T10121060  RH  070%=      5-min Rain = 0
KOD1 191325Z 34020KT M01/M06 A3021 RMK A01 T10121061  RH  070%=      5-min Rain = 0
KOD1 191326Z 34020KT M01/M06 A3021 RMK A01 T10121061  RH  069%=      5-min Rain = 0
KOD1 191327Z 34021G26KT M01/M06 A3021 RMK A01 T10121062  RH  069%=      5-min Rain = 0
KOD1 191328Z 34023G28KT M01/M06 A3021 RMK A01 T10121063  RH  069%=      5-min Rain = 0
KOD1 191329Z 34020G25KT M01/M06 A3021 RMK A01 T10121063  RH  068%=      5-min Rain = 0
KOD1 191330Z 34021G26KT M01/M06 A3022 RMK A01 T10121063  RH  068%=      5-min Rain = 0
KOD1 191331Z 34017G22KT M01/M06 A3022 RMK A01 T10121063  RH  068%=      5-min Rain = 0
KOD1 191332Z 34020G26KT M01/M06 A3022 RMK A01 T10131063  RH  068%=      5-min Rain = 0
KOD1 191333Z 33019G24KT M01/M06 A3022 RMK A01 T10131063  RH  069%=      5-min Rain = 0
KOD1 191334Z 34020KT M01/M06 A3022 RMK A01 T10131064  RH  069%=      5-min Rain = 0
KOD1 191335Z 34021KT M01/M06 A3022 RMK A01 T10131064  RH  068%=      5-min Rain = 0
KOD1 191336Z 34024KT M01/M06 A3022 RMK A01 T10131064  RH  068%=      5-min Rain = 0
KOD1 191337Z 34017KT M01/M06 A3022 RMK A01 T10131064  RH  068%=      5-min Rain = 0
KOD1 191338Z 33016KT M01/M06 A3022 RMK A01 T10131063  RH  069%=      5-min Rain = 0
KOD1 191339Z 34016KT M01/M06 A3022 RMK A01 T10141063  RH  069%=      5-min Rain = 0
KOD1 191340Z 33017KT M01/M06 A3022 RMK A01 T10141063  RH  069%=      5-min Rain = 0
KOD1 191341Z 33016G22KT M02/M06 A3022 RMK A01 T10151063  RH  070%=      5-min Rain = 0
KOD1 191342Z 33015G20KT M02/M06 A3022 RMK A01 T10151063  RH  070%=      5-min Rain = 0
KOD1 191343Z 33019KT M02/M06 A3022 RMK A01 T10161063  RH  070%=      5-min Rain = 0
KOD1 191344Z 33018KT M02/M06 A3022 RMK A01 T10151063  RH  070%=      5-min Rain = 0
KOD1 191345Z 34018KT M02/M06 A3022 RMK A01 T10151062  RH  070%=      5-min Rain = 0
KOD1 191346Z 33017KT M02/M06 A3022 RMK A01 T10151062  RH  070%=      5-min Rain = 0
KOD1 191347Z 33018KT M02/M06 A3023 RMK A01 T10151062  RH  071%=      5-min Rain = 0
KOD1 191348Z 33018KT M02/M06 A3023 RMK A01 T10161062  RH  071%=      5-min Rain = 0
KOD1 191349Z 33019KT M02/M06 A3023 RMK A01 T10161062  RH  071%=      5-min Rain = 0
KOD1 191350Z 33017KT M02/M06 A3023 RMK A01 T10161062  RH  071%=      5-min Rain = 0
KOD1 191351Z 33018KT M02/M06 A3023 RMK A01 T10161062  RH  071%=      5-min Rain = 0
KOD1 191352Z 33016KT M02/M06 A3023 RMK A01 T10161062  RH  070%=      5-min Rain = 0
KOD1 191353Z 33017KT M02/M06 A3023 RMK A01 T10161062  RH  071%=      5-min Rain = 0
KOD1 191354Z 33015KT M02/M06 A3023 RMK A01 T10161062  RH  071%=      5-min Rain = 0
KOD1 191355Z 33017G22KT M02/M06 A3023 RMK A01 T10161062  RH  071%=      5-min Rain = 0
KOD1 191356Z 32020KT M02/M06 A3023 RMK A01 T10161062  RH  071%=      5-min Rain = 0
KOD1 191357Z 33017G25KT M02/M06 A3023 RMK A01 T10161063  RH  070%=      5-min Rain = 0
KOD1 191358Z 33022KT M02/M06 A3023 RMK A01 T10161063  RH  070%=      5-min Rain = 0
KOD1 191359Z 33023KT M02/M06 A3023 RMK A01 T10161064  RH  070%=      5-min Rain = 0
KOD1 191400Z 33019G24KT M02/M06 A3023 RMK A01 T10151064  RH  070%=      5-min Rain = 0
KOD1 191401Z 33018KT M02/M06 A3023 RMK A01 T10161064  RH  070%=      5-min Rain = 0
KOD1 191402Z 33018KT M02/M06 A3023 RMK A01 T10161064  RH  070%=      5-min Rain = 0
KOD1 191403Z 33015KT M02/M06 A3023 RMK A01 T10161063  RH  070%=      5-min Rain = 0
KOD1 191404Z 33014KT M02/M06 A3024 RMK A01 T10161063  RH  070%=      5-min Rain = 0
KOD1 191405Z 33018KT M02/M06 A3024 RMK A01 T10161063  RH  070%=      5-min Rain = 0
KOD1 191406Z 34016KT M02/M06 A3024 RMK A01 T10161063  RH  070%=      5-min Rain = 0
KOD1 191407Z 33017KT M02/M06 A3024 RMK A01 T10161063  RH  070%=      5-min Rain = 0
KOD1 191408Z 34016KT M02/M06 A3024 RMK A01 T10161063  RH  070%=      5-min Rain = 0
KOD1 191409Z 33014KT M02/M06 A3024 RMK A01 T10161063  RH  071%=      5-min Rain = 0
KOD1 191410Z 34014G19KT M02/M06 A3024 RMK A01 T10171063  RH  071%=      5-min Rain = 0
KOD1 191411Z 33012KT M02/M06 A3024 RMK A01 T10171062  RH  071%=      5-min Rain = 0
KOD1 191412Z 33013KT M02/M06 A3024 RMK A01 T10171062  RH  071%=      5-min Rain = 0
KOD1 191413Z 33014KT M02/M06 A3024 RMK A01 T10171062  RH  072%=      5-min Rain = 0
KOD1 191414Z 33014KT M02/M06 A3024 RMK A01 T10171062  RH  072%=      5-min Rain = 0
KOD1 191415Z 33014KT M02/M06 A3024 RMK A01 T10171061  RH  072%=      5-min Rain = 0
KOD1 191416Z 33014KT M02/M06 A3024 RMK A01 T10181061  RH  072%=      5-min Rain = 0
KOD1 191417Z 33012KT M02/M06 A3024 RMK A01 T10181060  RH  073%=      5-min Rain = 0
KOD1 191418Z 33012KT M02/M06 A3024 RMK A01 T10181060  RH  073%=      5-min Rain = 0
KOD1 191419Z 33014KT M02/M06 A3024 RMK A01 T10181060  RH  073%=      5-min Rain = 0
KOD1 191420Z 33014KT M02/M06 A3024 RMK A01 T10171060  RH  073%=      5-min Rain = 0
KOD1 191421Z 33013KT M02/M06 A3024 RMK A01 T10171060  RH  073%=      5-min Rain = 0
KOD1 191422Z 33014KT M02/M06 A3024 RMK A01 T10171059  RH  073%=      5-min Rain = 0
KOD1 191423Z 33016KT M02/M06 A3024 RMK A01 T10181059  RH  073%=      5-min Rain = 0
KOD1 191424Z 33018KT M02/M06 A3024 RMK A01 T10171060  RH  073%=      5-min Rain = 0
KOD1 191425Z 32014KT M02/M06 A3024 RMK A01 T10161059  RH  072%=      5-min Rain = 0
KOD1 191426Z 32015KT M02/M06 A3024 RMK A01 T10161059  RH  072%=      5-min Rain = 0
KOD1 191427Z 33018KT M02/M06 A3024 RMK A01 T10151060  RH  072%=      5-min Rain = 0
KOD1 191428Z 33020G25KT M01/M06 A3024 RMK A01 T10141060  RH  071%=      5-min Rain = 0
KOD1 191429Z 33022KT M01/M06 A3024 RMK A01 T10141062  RH  070%=      5-min Rain = 0
KOD1 191430Z 33018KT M01/M06 A3024 RMK A01 T10131062  RH  070%=      5-min Rain = 0
KOD1 191431Z 33019G24KT M01/M06 A3024 RMK A01 T10131062  RH  069%=      5-min Rain = 0
KOD1 191432Z 34024G29KT M01/M06 A3024 RMK A01 T10131064  RH  068%=      5-min Rain = 0
KOD1 191433Z 33024G30KT M01/M07 A3024 RMK A01 T10131065  RH  068%=      5-min Rain = 0
KOD1 191434Z 34025G30KT M01/M07 A3024 RMK A01 T10131065  RH  068%=      5-min Rain = 0
KOD1 191435Z 33023G29KT M01/M07 A3025 RMK A01 T10131065  RH  068%=      5-min Rain = 0
KOD1 191436Z 33020G25KT M01/M06 A3025 RMK A01 T10141064  RH  068%=      5-min Rain = 0
KOD1 191437Z 33019G24KT M01/M06 A3025 RMK A01 T10131064  RH  068%=      5-min Rain = 0
KOD1 191438Z 33020G25KT M01/M06 A3025 RMK A01 T10121063  RH  068%=      5-min Rain = 0
KOD1 191439Z 33022KT M01/M06 A3025 RMK A01 T10121064  RH  068%=      5-min Rain = 0
KOD1 191440Z 33022G27KT M01/M07 A3025 RMK A01 T10121065  RH  067%=      5-min Rain = 0
KOD1 191441Z 33021KT M01/M06 A3025 RMK A01 T10121064  RH  068%=      5-min Rain = 0
KOD1 191442Z 34020G25KT M01/M06 A3025 RMK A01 T10121063  RH  068%=      5-min Rain = 0
KOD1 191443Z 34021G26KT M01/M06 A3025 RMK A01 T10111064  RH  068%=      5-min Rain = 0
KOD1 191444Z 33019G24KT M01/M06 A3025 RMK A01 T10111063  RH  068%=      5-min Rain = 0
KOD1 191445Z 33018G23KT M01/M06 A3025 RMK A01 T10101063  RH  067%=      5-min Rain = 0
KOD1 191446Z 33019G24KT M01/M06 A3025 RMK A01 T10091063  RH  067%=      5-min Rain = 0
KOD1 191447Z 34019G24KT M01/M06 A3026 RMK A01 T10091063  RH  067%=      5-min Rain = 0
KOD1 191448Z 33022KT M01/M06 A3026 RMK A01 T10091063  RH  067%=      5-min Rain = 0
KOD1 191449Z 33017G22KT M01/M06 A3026 RMK A01 T10091062  RH  067%=      5-min Rain = 0
KOD1 191450Z 33021KT M01/M06 A3026 RMK A01 T10091063  RH  067%=      5-min Rain = 0
KOD1 191451Z 33020KT M01/M06 A3026 RMK A01 T10081063  RH  067%=      5-min Rain = 0
KOD1 191452Z 33018KT M01/M06 A3026 RMK A01 T10081062  RH  067%=      5-min Rain = 0
KOD1 191453Z 33017KT M01/M06 A3026 RMK A01 T10081062  RH  067%=      5-min Rain = 0
KOD1 191454Z 33017KT M01/M06 A3026 RMK A01 T10071061  RH  067%=      5-min Rain = 0
KOD1 191455Z 33022KT M01/M06 A3026 RMK A01 T10071063  RH  066%=      5-min Rain = 0
KOD1 191456Z 33022KT M01/M06 A3026 RMK A01 T10071064  RH  066%=      5-min Rain = 0
KOD1 191457Z 33022G28KT M01/M06 A3026 RMK A01 T10071064  RH  066%=      5-min Rain = 0
KOD1 191458Z 33023KT M01/M07 A3026 RMK A01 T10071065  RH  065%=      5-min Rain = 0
KOD1 191459Z 33022KT M01/M07 A3026 RMK A01 T10081066  RH  065%=      5-min Rain = 0
KOD1 191500Z 33024G29KT M01/M07 A3026 RMK A01 T10081065  RH  065%=      5-min Rain = 0
KOD1 191501Z 33022KT M01/M07 A3027 RMK A01 T10081065  RH  065%=      5-min Rain = 0
KOD1 191502Z 33022KT M01/M07 A3026 RMK A01 T10081065  RH  065%=      5-min Rain = 0
KOD1 191503Z 33017KT M01/M06 A3027 RMK A01 T10081064  RH  066%=      5-min Rain = 0
KOD1 191504Z 33017KT M01/M06 A3027 RMK A01 T10071064  RH  065%=      5-min Rain = 0
KOD1 191505Z 33017KT M01/M06 A3027 RMK A01 T10061064  RH  065%=      5-min Rain = 0
KOD1 191506Z 33020G27KT M01/M07 A3027 RMK A01 T10061065  RH  064%=      5-min Rain = 0
KOD1 191507Z 33021G26KT M01/M07 A3027 RMK A01 T10061066  RH  064%=      5-min Rain = 0
KOD1 191508Z 33022G28KT M01/M07 A3027 RMK A01 T10061066  RH  064%=      5-min Rain = 0
KOD1 191509Z 33023KT M01/M07 A3027 RMK A01 T10071067  RH  064%=      5-min Rain = 0
KOD1 191510Z 33019G26KT M01/M07 A3027 RMK A01 T10071066  RH  064%=      5-min Rain = 0
KOD1 191511Z 33022KT M01/M07 A3027 RMK A01 T10071067  RH  064%=      5-min Rain = 0
KOD1 191512Z 33020G25KT M01/M07 A3027 RMK A01 T10071068  RH  063%=      5-min Rain = 0
KOD1 191513Z 33019G29KT M01/M07 A3027 RMK A01 T10061066  RH  064%=      5-min Rain = 0
KOD1 191514Z 34021G26KT M01/M07 A3027 RMK A01 T10061068  RH  063%=      5-min Rain = 0
KOD1 191515Z 33020G28KT M01/M07 A3027 RMK A01 T10061067  RH  063%=      5-min Rain = 0
KOD1 191516Z 34019G25KT M01/M07 A3027 RMK A01 T10061068  RH  063%=      5-min Rain = 0
KOD1 191517Z 34020G26KT M01/M07 A3027 RMK A01 T10051067  RH  063%=      5-min Rain = 0
KOD1 191518Z 33018KT M01/M07 A3027 RMK A01 T10051067  RH  063%=      5-min Rain = 0
KOD1 191519Z 33018G23KT M00/M07 A3027 RMK A01 T10041067  RH  063%=      5-min Rain = 0
KOD1 191520Z 33021G29KT M00/M07 A3027 RMK A01 T10041067  RH  062%=      5-min Rain = 0
KOD1 191521Z 33022KT M00/M07 A3027 RMK A01 T10041069  RH  062%=      5-min Rain = 0
KOD1 191522Z 33023G28KT M01/M07 A3027 RMK A01 T10051068  RH  062%=      5-min Rain = 0
KOD1 191523Z 33024KT M01/M07 A3027 RMK A01 T10051069  RH  062%=      5-min Rain = 0
KOD1 191524Z 33021G27KT M01/M07 A3028 RMK A01 T10051069  RH  062%=      5-min Rain = 0
KOD1 191525Z 34024G31KT M01/M07 A3028 RMK A01 T10051070  RH  062%=      5-min Rain = 0
KOD1 191526Z 33023G28KT M01/M07 A3028 RMK A01 T10061070  RH  062%=      5-min Rain = 0
KOD1 191527Z 33025KT M01/M07 A3028 RMK A01 T10061070  RH  062%=      5-min Rain = 0
KOD1 191528Z 33023G29KT M01/M07 A3028 RMK A01 T10061071  RH  062%=      5-min Rain = 0
KOD1 191529Z 33026KT M01/M07 A3028 RMK A01 T10051071  RH  061%=      5-min Rain = 0
KOD1 191530Z 33028KT M01/M07 A3028 RMK A01 T10061072  RH  061%=      5-min Rain = 0
KOD1 191531Z 33023G28KT M01/M07 A3028 RMK A01 T10061071  RH  061%=      5-min Rain = 0
KOD1 191532Z 33024KT M01/M07 A3028 RMK A01 T10051070  RH  061%=      5-min Rain = 0
KOD1 191533Z 33021KT M00/M07 A3028 RMK A01 T10041070  RH  061%=      5-min Rain = 0
KOD1 191534Z 34024G29KT M00/M07 A3028 RMK A01 T10031071  RH  060%=      5-min Rain = 0
KOD1 191535Z 34024KT M00/M07 A3028 RMK A01 T10041071  RH  060%=      5-min Rain = 0
KOD1 191536Z 34022G27KT M00/M07 A3028 RMK A01 T10031071  RH  060%=      5-min Rain = 0
KOD1 191537Z 33019KT M00/M07 A3028 RMK A01 T10031069  RH  061%=      5-min Rain = 0
KOD1 191538Z 33023KT M00/M07 A3028 RMK A01 T10021070  RH  060%=      5-min Rain = 0
KOD1 191539Z 34025G30KT M00/M07 A3028 RMK A01 T10021072  RH  059%=      5-min Rain = 0
KOD1 191540Z 34022KT M00/M07 A3028 RMK A01 T10021071  RH  060%=      5-min Rain = 0
KOD1 191541Z 34022G27KT M00/M07 A3029 RMK A01 T10021071  RH  060%=      5-min Rain = 0
KOD1 191542Z 34022G27KT M00/M07 A3029 RMK A01 T10021070  RH  060%=      5-min Rain = 0
KOD1 191543Z 34025G31KT M00/M07 A3029 RMK A01 T10031072  RH  059%=      5-min Rain = 0
KOD1 191544Z 34026KT M00/M07 A3029 RMK A01 T10031073  RH  060%=      5-min Rain = 0
KOD1 191545Z 34021KT M00/M07 A3029 RMK A01 T10031072  RH  060%=      5-min Rain = 0
KOD1 191546Z 33023KT M00/M07 A3029 RMK A01 T10021071  RH  060%=      5-min Rain = 0
KOD1 191547Z 33024KT M00/M07 A3029 RMK A01 T10021072  RH  059%=      5-min Rain = 0
KOD1 191548Z 33025G31KT M00/M07 A3029 RMK A01 T10021073  RH  059%=      5-min Rain = 0
KOD1 191549Z 33024G29KT M00/M07 A3029 RMK A01 T10021072  RH  059%=      5-min Rain = 0
KOD1 191550Z 34023KT M00/M07 A3029 RMK A01 T10021072  RH  059%=      5-min Rain = 0
KOD1 191551Z 33022G28KT M00/M07 A3029 RMK A01 T10021072  RH  059%=      5-min Rain = 0
KOD1 191552Z 33026KT M00/M07 A3029 RMK A01 T10011073  RH  058%=      5-min Rain = 0
KOD1 191553Z 33024KT M00/M07 A3029 RMK A01 T10011073  RH  058%=      5-min Rain = 0
KOD1 191554Z 33021KT M00/M07 A3029 RMK A01 T10011072  RH  059%=      5-min Rain = 0
KOD1 191555Z 33022KT 00/07 A3029 RMK A01 T00-00-72  RH  058%=      5-min Rain = 0
KOD1 191556Z 34021KT 00/07 A3029 RMK A01 T00000-72  RH  058%=      5-min Rain = 0
KOD1 191557Z 33024G29KT 00/07 A3029 RMK A01 T00000-73  RH  058%=      5-min Rain = 0
KOD1 191558Z 34021KT 00/07 A3029 RMK A01 T00000-72  RH  058%=      5-min Rain = 0
KOD1 191559Z 34017G22KT 00/M07 A303 RMK A01 T00011071  RH  058%=      5-min Rain = 0
KOD1 191600Z 33016KT 00/M07 A303 RMK A01 T00021070  RH  058%=      5-min Rain = 0
KOD1 191601Z 33018KT 00/M07 A303 RMK A01 T00041069  RH  058%=      5-min Rain = 0
KOD1 191602Z 34022KT 00/M07 A303 RMK A01 T00041073  RH  056%=      5-min Rain = 0
KOD1 191603Z 34023KT 00/M07 A303 RMK A01 T00031073  RH  056%=      5-min Rain = 0
KOD1 191604Z 33023G28KT 00/M07 A303 RMK A01 T00021073  RH  057%=      5-min Rain = 0
KOD1 191605Z 33022KT 00/M07 A303 RMK A01 T00021073  RH  057%=      5-min Rain = 0
KOD1 191606Z 34019KT 00/M07 A303 RMK A01 T00031072  RH  057%=      5-min Rain = 0
KOD1 191607Z 34019G24KT 00/M07 A303 RMK A01 T00041073  RH  056%=      5-min Rain = 0
KOD1 191608Z 34021KT 00/M07 A303 RMK A01 T00041073  RH  056%=      5-min Rain = 0
KOD1 191609Z 34021KT 00/M07 A303 RMK A01 T00041073  RH  056%=      5-min Rain = 0
KOD1 191610Z 34019KT 00/M07 A303 RMK A01 T00041073  RH  056%=      5-min Rain = 0
KOD1 191611Z 34021G28KT 01/M07 A303 RMK A01 T00051074  RH  056%=      5-min Rain = 0
KOD1 191612Z 33020KT 01/M07 A303 RMK A01 T00051073  RH  056%=      5-min Rain = 0
KOD1 191613Z 33023KT 01/M07 A303 RMK A01 T00051074  RH  055%=      5-min Rain = 0
KOD1 191614Z 33023KT 01/M07 A303 RMK A01 T00051074  RH  055%=      5-min Rain = 0
KOD1 191615Z 32025G31KT 01/M07 A303 RMK A01 T00051074  RH  055%=      5-min Rain = 0
KOD1 191616Z 33020G25KT 01/M07 A303 RMK A01 T00051074  RH  055%=      5-min Rain = 0
KOD1 191617Z 33018G27KT 01/M07 A303 RMK A01 T00061072  RH  056%=      5-min Rain = 0
KOD1 191618Z 33023KT 01/M08 A303 RMK A01 T00071075  RH  054%=      5-min Rain = 0
KOD1 191619Z 34023KT 01/M07 A303 RMK A01 T00071074  RH  055%=      5-min Rain = 0
KOD1 191620Z 34021G26KT 01/M07 A303 RMK A01 T00071074  RH  055%=      5-min Rain = 0
KOD1 191621Z 33024G30KT 01/M08 A303 RMK A01 T00071075  RH  054%=      5-min Rain = 0
KOD1 191622Z 34023G28KT 01/M08 A3031 RMK A01 T00061076  RH  054%=      5-min Rain = 0
KOD1 191623Z 33024KT 01/M08 A3031 RMK A01 T00061076  RH  054%=      5-min Rain = 0
KOD1 191624Z 33022KT 01/M08 A3031 RMK A01 T00061075  RH  054%=      5-min Rain = 0
KOD1 191625Z 33024KT 01/M08 A3031 RMK A01 T00061076  RH  054%=      5-min Rain = 0
KOD1 191626Z 33022G28KT 01/M08 A3031 RMK A01 T00071075  RH  054%=      5-min Rain = 0
KOD1 191627Z 33022KT 01/M08 A3031 RMK A01 T00071076  RH  054%=      5-min Rain = 0
KOD1 191628Z 34025G30KT 01/M08 A3031 RMK A01 T00071077  RH  053%=      5-min Rain = 0
KOD1 191629Z 33025G31KT 01/M08 A3031 RMK A01 T00061078  RH  053%=      5-min Rain = 0
KOD1 191630Z 34023KT 01/M08 A3031 RMK A01 T00061077  RH  054%=      5-min Rain = 0
KOD1 191631Z 33025KT 01/M08 A3031 RMK A01 T00061077  RH  054%=      5-min Rain = 0
KOD1 191632Z 33024KT 01/M08 A3031 RMK A01 T00061076  RH  054%=      5-min Rain = 0
KOD1 191633Z 34022G27KT 01/M08 A3031 RMK A01 T00061076  RH  054%=      5-min Rain = 0
KOD1 191634Z 34022G27KT 01/M08 A3031 RMK A01 T00061076  RH  054%=      5-min Rain = 0
KOD1 191635Z 34022KT 01/M08 A3031 RMK A01 T00071075  RH  054%=      5-min Rain = 0
KOD1 191636Z 34020KT 01/M08 A3031 RMK A01 T00081075  RH  054%=      5-min Rain = 0
KOD1 191637Z 34017KT 01/M07 A3031 RMK A01 T00101072  RH  055%=      5-min Rain = 0
KOD1 191638Z 34020G27KT 01/M07 A3031 RMK A01 T00121073  RH  053%=      5-min Rain = 0
KOD1 191639Z 34022G27KT 01/M08 A3031 RMK A01 T00121076  RH  052%=      5-min Rain = 0
KOD1 191640Z 33021KT 01/M08 A3031 RMK A01 T00101075  RH  053%=      5-min Rain = 0
KOD1 191641Z 33023KT 01/M08 A3031 RMK A01 T00111075  RH  053%=      5-min Rain = 0
KOD1 191642Z 32019G24KT 01/M07 A3031 RMK A01 T00111074  RH  053%=      5-min Rain = 0
KOD1 191643Z 33023G28KT 01/M08 A3031 RMK A01 T00111076  RH  052%=      5-min Rain = 0
KOD1 191644Z 33019KT 01/M08 A3031 RMK A01 T00101076  RH  053%=      5-min Rain = 0
KOD1 191645Z 33023G30KT 01/M08 A3031 RMK A01 T00111075  RH  052%=      5-min Rain = 0
KOD1 191646Z 33022G28KT 01/M08 A3031 RMK A01 T00111076  RH  052%=      5-min Rain = 0
KOD1 191647Z 33023G29KT 01/M08 A3031 RMK A01 T00111077  RH  052%=      5-min Rain = 0
KOD1 191648Z 32023G30KT 01/M08 A3031 RMK A01 T00111078  RH  051%=      5-min Rain = 0
KOD1 191649Z 33025G30KT 01/M08 A3031 RMK A01 T00101079  RH  051%=      5-min Rain = 0
KOD1 191650Z 33024G29KT 01/M08 A3031 RMK A01 T00101077  RH  052%=      5-min Rain = 0
KOD1 191651Z 33024KT 01/M08 A3031 RMK A01 T00101078  RH  052%=      5-min Rain = 0
KOD1 191652Z 34021KT 01/M08 A3031 RMK A01 T00091076  RH  053%=      5-min Rain = 0
KOD1 191653Z 33023KT 01/M08 A3031 RMK A01 T00101076  RH  053%=      5-min Rain = 0
KOD1 191654Z 33018KT 01/M07 A3032 RMK A01 T00121074  RH  053%=      5-min Rain = 0
KOD1 191655Z 32022G27KT 01/M08 A3031 RMK A01 T00131076  RH  051%=      5-min Rain = 0
KOD1 191656Z 33019KT 01/M08 A3031 RMK A01 T00131077  RH  051%=      5-min Rain = 0
KOD1 191657Z 33019KT 01/M08 A3031 RMK A01 T00131076  RH  051%=      5-min Rain = 0
KOD1 191658Z 33022G29KT 01/M08 A3031 RMK A01 T00141077  RH  051%=      5-min Rain = 0
KOD1 191659Z 33024KT 01/M08 A3031 RMK A01 T00141078  RH  050%=      5-min Rain = 0
KOD1 191700Z 34024KT 01/M08 A3032 RMK A01 T00131079  RH  050%=      5-min Rain = 0
KOD1 191701Z 33023G28KT 01/M08 A3032 RMK A01 T00131078  RH  051%=      5-min Rain = 0
KOD1 191702Z 33021KT 01/M08 A3032 RMK A01 T00131077  RH  051%=      5-min Rain = 0
KOD1 191703Z 33021KT 01/M08 A3031 RMK A01 T00131077  RH  051%=      5-min Rain = 0
KOD1 191704Z 32021KT 01/M08 A3031 RMK A01 T00141077  RH  051%=      5-min Rain = 0
KOD1 191705Z 34017KT 02/M08 A3032 RMK A01 T00151075  RH  051%=      5-min Rain = 0
KOD1 191706Z 34019KT 02/M08 A3032 RMK A01 T00161077  RH  050%=      5-min Rain = 0
KOD1 191707Z 34016KT 02/M08 A3032 RMK A01 T00161076  RH  050%=      5-min Rain = 0
KOD1 191708Z 33021G26KT 02/M08 A3032 RMK A01 T00161078  RH  049%=      5-min Rain = 0
KOD1 191709Z 33023G28KT 02/M08 A3032 RMK A01 T00161080  RH  049%=      5-min Rain = 0
KOD1 191710Z 33025KT 02/M08 A3032 RMK A01 T00161082  RH  048%=      5-min Rain = 0
KOD1 191711Z 34022KT 02/M08 A3032 RMK A01 T00161080  RH  049%=      5-min Rain = 0
KOD1 191712Z 33022KT 02/M08 A3032 RMK A01 T00161080  RH  049%=      5-min Rain = 0
KOD1 191713Z 34022G27KT 02/M08 A3032 RMK A01 T00151080  RH  049%=      5-min Rain = 0
KOD1 191714Z 33024KT 02/M08 A3032 RMK A01 T00151082  RH  049%=      5-min Rain = 0
KOD1 191715Z 34019G24KT 01/M08 A3032 RMK A01 T00141080  RH  050%=      5-min Rain = 0
KOD1 191716Z 33023KT 02/M08 A3032 RMK A01 T00151079  RH  049%=      5-min Rain = 0
KOD1 191717Z 33020KT 02/M08 A3032 RMK A01 T00151080  RH  049%=      5-min Rain = 0
KOD1 191718Z 33021G26KT 02/M08 A3032 RMK A01 T00161078  RH  050%=      5-min Rain = 0
KOD1 191719Z 33021KT 02/M08 A3032 RMK A01 T00171079  RH  049%=      5-min Rain = 0
KOD1 191720Z 33020KT 02/M08 A3031 RMK A01 T00181080  RH  048%=      5-min Rain = 0
KOD1 191721Z 33021KT 02/M08 A3031 RMK A01 T00181080  RH  048%=      5-min Rain = 0
KOD1 191722Z 33024KT 02/M08 A3031 RMK A01 T00191082  RH  047%=      5-min Rain = 0
KOD1 191723Z 35022G27KT 02/M08 A3032 RMK A01 T00181081  RH  048%=      5-min Rain = 0
KOD1 191724Z 34021KT 02/M08 A3031 RMK A01 T00181081  RH  048%=      5-min Rain = 0
KOD1 191725Z 34021KT 02/M08 A3031 RMK A01 T00181080  RH  048%=      5-min Rain = 0
KOD1 191726Z 34019KT 02/M08 A3032 RMK A01 T00191078  RH  048%=      5-min Rain = 0
KOD1 191727Z 34020KT 02/M08 A3032 RMK A01 T00201079  RH  048%=      5-min Rain = 0
KOD1 191728Z 34023KT 02/M08 A3032 RMK A01 T00201080  RH  047%=      5-min Rain = 0
KOD1 191729Z 34020G25KT 02/M08 A3032 RMK A01 T00191080  RH  048%=      5-min Rain = 0
KOD1 191730Z 35018KT 02/M08 A3032 RMK A01 T00191080  RH  048%=      5-min Rain = 0
KOD1 191731Z 34015KT 02/M08 A3032 RMK A01 T00201077  RH  049%=      5-min Rain = 0
KOD1 191732Z 33020G25KT 02/M08 A3032 RMK A01 T00231078  RH  047%=      5-min Rain = 0
KOD1 191733Z 33020KT 02/M08 A3032 RMK A01 T00231080  RH  047%=      5-min Rain = 0
KOD1 191734Z 33018KT 02/M08 A3032 RMK A01 T00231078  RH  047%=      5-min Rain = 0
KOD1 191735Z 34020KT 03/M08 A3032 RMK A01 T00251078  RH  047%=      5-min Rain = 0
KOD1 191736Z 34018G23KT 03/M08 A3032 RMK A01 T00251079  RH  046%=      5-min Rain = 0
KOD1 191737Z 34022G28KT 03/M08 A3032 RMK A01 T00251081  RH  046%=      5-min Rain = 0
KOD1 191738Z 33020G27KT 02/M08 A3032 RMK A01 T00241081  RH  046%=      5-min Rain = 0
KOD1 191739Z 34022KT 02/M08 A3032 RMK A01 T00231083  RH  046%=      5-min Rain = 0
KOD1 191740Z 33019G25KT 02/M08 A3032 RMK A01 T00221082  RH  046%=      5-min Rain = 0
KOD1 191741Z 33022G27KT 02/M08 A3032 RMK A01 T00221082  RH  046%=      5-min Rain = 0
KOD1 191742Z 33024G29KT 02/M08 A3032 RMK A01 T00221083  RH  046%=      5-min Rain = 0
KOD1 191743Z 33021G27KT 02/M08 A3032 RMK A01 T00221082  RH  046%=      5-min Rain = 0
KOD1 191744Z 33017KT 02/M08 A3032 RMK A01 T00241079  RH  047%=      5-min Rain = 0
KOD1 191745Z 34022G29KT 03/M08 A3032 RMK A01 T00261081  RH  045%=      5-min Rain = 0
KOD1 191746Z 33023KT 03/M08 A3032 RMK A01 T00251083  RH  045%=      5-min Rain = 0
KOD1 191747Z 33024KT 02/M08 A3031 RMK A01 T00241084  RH  045%=      5-min Rain = 0
KOD1 191748Z 34019G26KT 02/M08 A3032 RMK A01 T00241081  RH  046%=      5-min Rain = 0
KOD1 191749Z 34019G24KT 03/M08 A3032 RMK A01 T00251084  RH  045%=      5-min Rain = 0
KOD1 191750Z 34020G25KT 03/M08 A3031 RMK A01 T00251082  RH  045%=      5-min Rain = 0
KOD1 191751Z 34023G29KT 03/M08 A3031 RMK A01 T00251083  RH  045%=      5-min Rain = 0
KOD1 191752Z 35022G28KT 02/M08 A3031 RMK A01 T00231083  RH  045%=      5-min Rain = 0
KOD1 191753Z 34021G26KT 02/M08 A3031 RMK A01 T00231083  RH  045%=      5-min Rain = 0
KOD1 191754Z 34018KT 02/M08 A3031 RMK A01 T00241080  RH  046%=      5-min Rain = 0
KOD1 191755Z 34019KT 03/M08 A3031 RMK A01 T00271078  RH  046%=      5-min Rain = 0
KOD1 191756Z 33022G27KT 03/M08 A3032 RMK A01 T00271083  RH  044%=      5-min Rain = 0
KOD1 191757Z 33025G30KT 03/M08 A3031 RMK A01 T00271084  RH  044%=      5-min Rain = 0
KOD1 191758Z 33025KT 03/M08 A3031 RMK A01 T00261084  RH  044%=      5-min Rain = 0
KOD1 191759Z 34025KT 03/M09 A3032 RMK A01 T00261085  RH  044%=      5-min Rain = 0
KOD1 191800Z 34021KT 03/M08 A3032 RMK A01 T00261084  RH  044%=      5-min Rain = 0
KOD1 191801Z 34022KT 03/M08 A3032 RMK A01 T00271084  RH  044%=      5-min Rain = 0
KOD1 191802Z 34024KT 03/M09 A3032 RMK A01 T00271085  RH  044%=      5-min Rain = 0
KOD1 191803Z 34021KT 03/M09 A3032 RMK A01 T00261085  RH  044%=      5-min Rain = 0
KOD1 191804Z 35021KT 03/M08 A3032 RMK A01 T00271083  RH  044%=      5-min Rain = 0
KOD1 191805Z 35019KT 03/M08 A3032 RMK A01 T00291083  RH  044%=      5-min Rain = 0
KOD1 191806Z 34023G28KT 03/M08 A3031 RMK A01 T00301083  RH  043%=      5-min Rain = 0
KOD1 191807Z 34019G25KT 03/M08 A3031 RMK A01 T00291083  RH  043%=      5-min Rain = 0
KOD1 191808Z 35020G25KT 03/M08 A3031 RMK A01 T00291082  RH  044%=      5-min Rain = 0
KOD1 191809Z 35020G25KT 03/M08 A3031 RMK A01 T00291083  RH  044%=      5-min Rain = 0
KOD1 191810Z 34020KT 03/M08 A3031 RMK A01 T00301083  RH  044%=      5-min Rain = 0
KOD1 191811Z 33019KT 03/M08 A3031 RMK A01 T00301079  RH  044%=      5-min Rain = 0
KOD1 191812Z 33022G27KT 03/M08 A3031 RMK A01 T00321082  RH  043%=      5-min Rain = 0
KOD1 191813Z 33018KT 03/M08 A3031 RMK A01 T00311081  RH  043%=      5-min Rain = 0
KOD1 191814Z 33019KT 03/M08 A3031 RMK A01 T00311082  RH  043%=      5-min Rain = 0
KOD1 191815Z 35019KT 03/M08 A3031 RMK A01 T00321081  RH  043%=      5-min Rain = 0
KOD1 191816Z 34019G25KT 03/M08 A3031 RMK A01 T00321081  RH  044%=      5-min Rain = 0
KOD1 191817Z 34022KT 03/M08 A3031 RMK A01 T00321084  RH  042%=      5-min Rain = 0
KOD1 191818Z 32023G30KT 03/M08 A3031 RMK A01 T00321083  RH  043%=      5-min Rain = 0
KOD1 191819Z 34024G29KT 03/M09 A3031 RMK A01 T00331086  RH  042%=      5-min Rain = 0
KOD1 191820Z 33023KT 03/M09 A3031 RMK A01 T00311086  RH  042%=      5-min Rain = 0
KOD1 191821Z 33018G23KT 03/M08 A3031 RMK A01 T00321084  RH  042%=      5-min Rain = 0
KOD1 191822Z 33024KT 03/M09 A3031 RMK A01 T00331085  RH  042%=      5-min Rain = 0
KOD1 191823Z 33022KT 03/M09 A3031 RMK A01 T00321085  RH  042%=      5-min Rain = 0
KOD1 191824Z 33021KT 03/M09 A3031 RMK A01 T00321085  RH  042%=      5-min Rain = 0
KOD1 191825Z 32021KT 03/M09 A3031 RMK A01 T00331085  RH  042%=      5-min Rain = 0
KOD1 191826Z 34018G25KT 03/M08 A3031 RMK A01 T00321083  RH  043%=      5-min Rain = 0
KOD1 191827Z 34021G26KT 03/M08 A3031 RMK A01 T00341083  RH  042%=      5-min Rain = 0
KOD1 191828Z 34021G28KT 03/M08 A3031 RMK A01 T00341083  RH  042%=      5-min Rain = 0
KOD1 191829Z 33021G26KT 04/M08 A3031 RMK A01 T00361082  RH  042%=      5-min Rain = 0
KOD1 191830Z 33024G29KT 04/M09 A3031 RMK A01 T00351087  RH  040%=      5-min Rain = 0
KOD1 191831Z 33022KT 03/M09 A3031 RMK A01 T00341089  RH  040%=      5-min Rain = 0
KOD1 191832Z 33024G32KT 03/M09 A303 RMK A01 T00341088  RH  041%=      5-min Rain = 0
KOD1 191833Z 34020G25KT 04/M09 A303 RMK A01 T00351086  RH  041%=      5-min Rain = 0
KOD1 191834Z 34023G29KT 04/M09 A303 RMK A01 T00361088  RH  040%=      5-min Rain = 0
KOD1 191835Z 33028KT 04/M09 A303 RMK A01 T00351089  RH  040%=      5-min Rain = 0
KOD1 191836Z 33023G28KT 03/M09 A3031 RMK A01 T00331089  RH  041%=      5-min Rain = 0
KOD1 191837Z 33021KT 03/M09 A303 RMK A01 T00321086  RH  042%=      5-min Rain = 0
KOD1 191838Z 34019KT 03/M09 A303 RMK A01 T00321085  RH  042%=      5-min Rain = 0
KOD1 191839Z 34023G29KT 03/M09 A303 RMK A01 T00341086  RH  041%=      5-min Rain = 0
KOD1 191840Z 33024G29KT 03/M09 A303 RMK A01 T00341089  RH  040%=      5-min Rain = 0
KOD1 191841Z 33022KT 03/M09 A303 RMK A01 T00331089  RH  041%=      5-min Rain = 0
KOD1 191842Z 35022KT 03/M09 A303 RMK A01 T00331089  RH  041%=      5-min Rain = 0
KOD1 191843Z 35024G31KT 03/M09 A303 RMK A01 T00331089  RH  040%=      5-min Rain = 0
KOD1 191844Z 33021G29KT 04/M09 A303 RMK A01 T00351087  RH  041%=      5-min Rain = 0
KOD1 191845Z 34026KT 04/M09 A3029 RMK A01 T00351090  RH  039%=      5-min Rain = 0
KOD1 191846Z 34022G28KT 03/M09 A303 RMK A01 T00341089  RH  040%=      5-min Rain = 0
KOD1 191847Z 34024KT 04/M09 A3029 RMK A01 T00351089  RH  040%=      5-min Rain = 0
KOD1 191848Z 34022G30KT 03/M09 A3029 RMK A01 T00341089  RH  040%=      5-min Rain = 0
KOD1 191849Z 35023G29KT 04/M09 A3029 RMK A01 T00351087  RH  040%=      5-min Rain = 0
KOD1 191850Z 34022G27KT 03/M09 A3029 RMK A01 T00341088  RH  040%=      5-min Rain = 0
KOD1 191851Z 34022G27KT 03/M09 A3029 RMK A01 T00341087  RH  041%=      5-min Rain = 0
KOD1 191852Z 34020G26KT 04/M09 A3029 RMK A01 T00351086  RH  041%=      5-min Rain = 0
KOD1 191853Z 34019KT 04/M09 A3029 RMK A01 T00371085  RH  040%=      5-min Rain = 0
KOD1 191854Z 34024G29KT 04/M09 A3029 RMK A01 T00381086  RH  040%=      5-min Rain = 0
KOD1 191855Z 33018G23KT 04/M09 A3029 RMK A01 T00391085  RH  040%=      5-min Rain = 0
KOD1 191856Z 34017G22KT 04/M09 A3029 RMK A01 T00411085  RH  040%=      5-min Rain = 0
KOD1 191857Z 33024G29KT 04/M09 A3029 RMK A01 T00421088  RH  038%=      5-min Rain = 0
KOD1 191858Z 34022G27KT 04/M09 A3029 RMK A01 T00401090  RH  038%=      5-min Rain = 0
KOD1 191859Z 34021KT 04/M09 A3029 RMK A01 T00391087  RH  039%=      5-min Rain = 0
KOD1 191900Z 35022KT 04/M09 A3029 RMK A01 T00381088  RH  039%=      5-min Rain = 0
KOD1 191901Z 35022G28KT 04/M09 A3029 RMK A01 T00381088  RH  039%=      5-min Rain = 0
KOD1 191902Z 35021KT 04/M09 A3029 RMK A01 T00381087  RH  040%=      5-min Rain = 0
KOD1 191903Z 34022G27KT 04/M09 A3029 RMK A01 T00391089  RH  039%=      5-min Rain = 0
KOD1 191904Z 35026KT 04/M09 A3029 RMK A01 T00381091  RH  038%=      5-min Rain = 0
KOD1 191905Z 35025KT 04/M09 A3029 RMK A01 T00371091  RH  039%=      5-min Rain = 0
KOD1 191906Z 35026KT 04/M09 A3029 RMK A01 T00361092  RH  039%=      5-min Rain = 0
KOD1 191907Z 35024G31KT 04/M09 A3029 RMK A01 T00351092  RH  039%=      5-min Rain = 0
KOD1 191908Z 34023KT 04/M09 A3029 RMK A01 T00361089  RH  039%=      5-min Rain = 0
KOD1 191909Z 34020KT 04/M09 A3029 RMK A01 T00381090  RH  039%=      5-min Rain = 0
KOD1 191910Z 33023KT 04/M09 A3029 RMK A01 T00391091  RH  038%=      5-min Rain = 0
KOD1 191911Z 33025G31KT 04/M09 A3029 RMK A01 T00371092  RH  038%=      5-min Rain = 0
KOD1 191912Z 33023KT 04/M09 A3029 RMK A01 T00371091  RH  039%=      5-min Rain = 0
KOD1 191913Z 34026G31KT 04/M09 A3029 RMK A01 T00371094  RH  038%=      5-min Rain = 0
KOD1 191914Z 34024G29KT 04/M09 A3029 RMK A01 T00361093  RH  038%=      5-min Rain = 0
KOD1 191915Z 34022KT 04/M09 A3029 RMK A01 T00361092  RH  039%=      5-min Rain = 0
KOD1 191916Z 33025KT 04/M09 A3029 RMK A01 T00371091  RH  039%=      5-min Rain = 0
KOD1 191917Z 34022G29KT 04/M09 A3029 RMK A01 T00371091  RH  039%=      5-min Rain = 0
KOD1 191918Z 34021KT 04/M09 A3029 RMK A01 T00381090  RH  039%=      5-min Rain = 0
KOD1 191919Z 34024KT 04/M09 A3029 RMK A01 T00371092  RH  038%=      5-min Rain = 0
KOD1 191920Z 34021KT 04/M09 A3029 RMK A01 T00361090  RH  039%=      5-min Rain = 0
KOD1 191921Z 34020G25KT 04/M09 A3029 RMK A01 T00361092  RH  039%=      5-min Rain = 0
KOD1 191922Z 34019KT 04/M09 A3029 RMK A01 T00361091  RH  039%=      5-min Rain = 0
KOD1 191923Z 34014KT 04/M09 A3029 RMK A01 T00371088  RH  040%=      5-min Rain = 0
KOD1 191924Z 34017G23KT 04/M09 A3029 RMK A01 T00401087  RH  039%=      5-min Rain = 0
KOD1 191925Z 34021KT 04/M09 A3029 RMK A01 T00411089  RH  038%=      5-min Rain = 0
KOD1 191926Z 34018KT 04/M09 A3029 RMK A01 T00411088  RH  039%=      5-min Rain = 0
KOD1 191927Z 35017G22KT 04/M09 A3029 RMK A01 T00431085  RH  039%=      5-min Rain = 0
KOD1 191928Z 35022G29KT 04/M09 A3029 RMK A01 T00441088  RH  038%=      5-min Rain = 0
KOD1 191929Z 34022G29KT 04/M09 A3029 RMK A01 T00431090  RH  037%=      5-min Rain = 0
KOD1 191930Z 34024KT 04/M09 A3029 RMK A01 T00421092  RH  037%=      5-min Rain = 0
KOD1 191931Z 35022G27KT 04/M09 A3029 RMK A01 T00401091  RH  038%=      5-min Rain = 0
KOD1 191932Z 33023KT 04/M09 A3029 RMK A01 T00401090  RH  038%=      5-min Rain = 0
KOD1 191933Z 32025KT 04/M09 A3029 RMK A01 T00401092  RH  038%=      5-min Rain = 0
KOD1 191934Z 33024KT 04/M09 A3029 RMK A01 T00401091  RH  038%=      5-min Rain = 0
KOD1 191935Z 34021KT 04/M09 A3029 RMK A01 T00401090  RH  038%=      5-min Rain = 0
KOD1 191936Z 34021G26KT 04/M09 A3029 RMK A01 T00401090  RH  038%=      5-min Rain = 0
KOD1 191937Z 33025G32KT 04/M09 A3029 RMK A01 T00401092  RH  038%=      5-min Rain = 0
KOD1 191938Z 33025G31KT 04/M09 A3029 RMK A01 T00401093  RH  037%=      5-min Rain = 0
KOD1 191939Z 34021G26KT 04/M09 A3029 RMK A01 T00411090  RH  038%=      5-min Rain = 0
KOD1 191940Z 34020G26KT 04/M09 A3029 RMK A01 T00431091  RH  037%=      5-min Rain = 0
KOD1 191941Z 35022G27KT 04/M09 A3029 RMK A01 T00431093  RH  037%=      5-min Rain = 0
KOD1 191942Z 33022KT 04/M09 A3029 RMK A01 T00421091  RH  037%=      5-min Rain = 0
KOD1 191943Z 34024G31KT 04/M09 A3029 RMK A01 T00421092  RH  037%=      5-min Rain = 0
KOD1 191944Z 34025KT 04/M09 A3029 RMK A01 T00421094  RH  037%=      5-min Rain = 0
KOD1 191945Z 33022KT 04/M09 A3029 RMK A01 T00411092  RH  037%=      5-min Rain = 0
KOD1 191946Z 33019G27KT 04/M09 A3029 RMK A01 T00431090  RH  037%=      5-min Rain = 0
KOD1 191947Z 34023KT 04/M09 A3029 RMK A01 T00441093  RH  036%=      5-min Rain = 0
KOD1 191948Z 34023KT 04/M09 A3028 RMK A01 T00431093  RH  037%=      5-min Rain = 0
KOD1 191949Z 35024KT 04/M09 A3029 RMK A01 T00421092  RH  037%=      5-min Rain = 0
KOD1 191950Z 35024KT 04/M09 A3028 RMK A01 T00421094  RH  037%=      5-min Rain = 0
KOD1 191951Z 35021KT 04/M09 A3028 RMK A01 T00411093  RH  037%=      5-min Rain = 0
KOD1 191952Z 36021G26KT 04/M09 A3028 RMK A01 T00411091  RH  038%=      5-min Rain = 0
KOD1 191953Z 35024KT 04/M09 A3028 RMK A01 T00411092  RH  037%=      5-min Rain = 0
KOD1 191954Z 33019KT 04/M09 A3028 RMK A01 T00411091  RH  038%=      5-min Rain = 0
KOD1 191955Z 34017KT 04/M09 A3028 RMK A01 T00431087  RH  038%=      5-min Rain = 0
KOD1 191956Z 34020G26KT 05/M09 A3028 RMK A01 T00461089  RH  037%=      5-min Rain = 0
KOD1 191957Z 34023G28KT 05/M09 A3028 RMK A01 T00461092  RH  036%=      5-min Rain = 0
KOD1 191958Z 35027KT 05/M09 A3028 RMK A01 T00461093  RH  036%=      5-min Rain = 0
KOD1 191959Z 35024KT 04/M09 A3028 RMK A01 T00441093  RH  036%=      5-min Rain = 0
KOD1 192000Z 35024KT 04/M09 A3028 RMK A01 T00441091  RH  037%=      5-min Rain = 0
KOD1 192001Z 35023KT 05/M09 A3028 RMK A01 T00451092  RH  036%=      5-min Rain = 0
KOD1 192002Z 34019KT 04/M09 A3028 RMK A01 T00441093  RH  036%=      5-min Rain = 0
KOD1 192003Z 36020KT 04/M09 A3028 RMK A01 T00441091  RH  037%=      5-min Rain = 0
KOD1 192004Z 35018KT 05/M09 A3027 RMK A01 T00461088  RH  037%=      5-min Rain = 0
KOD1 192005Z 34021G27KT 05/M09 A3027 RMK A01 T00481090  RH  036%=      5-min Rain = 0
KOD1 192006Z 34022KT 05/M09 A3027 RMK A01 T00481093  RH  035%=      5-min Rain = 0
KOD1 192007Z 34022KT 05/M09 A3027 RMK A01 T00471092  RH  036%=      5-min Rain = 0
KOD1 192008Z 35022KT 05/M09 A3027 RMK A01 T00461093  RH  036%=      5-min Rain = 0
KOD1 192009Z 35024KT 05/M09 A3027 RMK A01 T00451093  RH  036%=      5-min Rain = 0
KOD1 192010Z 35022KT 04/M09 A3027 RMK A01 T00441092  RH  036%=      5-min Rain = 0
KOD1 192011Z 35019KT 04/M09 A3027 RMK A01 T00441092  RH  036%=      5-min Rain = 0
KOD1 192012Z 34019G27KT 05/M09 A3027 RMK A01 T00451092  RH  036%=      5-min Rain = 0
KOD1 192013Z 34020G26KT 05/M09 A3027 RMK A01 T00451092  RH  036%=      5-min Rain = 0
KOD1 192014Z 33019KT 05/M09 A3027 RMK A01 T00461093  RH  036%=      5-min Rain = 0
KOD1 192015Z 33017KT 05/M09 A3027 RMK A01 T00471092  RH  036%=      5-min Rain = 0
KOD1 192016Z 34016KT 05/M09 A3027 RMK A01 T00461093  RH  036%=      5-min Rain = 0
KOD1 192017Z 34017KT 05/M09 A3027 RMK A01 T00461091  RH  036%=      5-min Rain = 0
KOD1 192018Z 33020G26KT 05/M09 A3027 RMK A01 T00481089  RH  036%=      5-min Rain = 0
KOD1 192019Z 33019G24KT 05/M09 A3027 RMK A01 T00491090  RH  036%=      5-min Rain = 0
KOD1 192020Z 34025KT 05/M09 A3027 RMK A01 T00481094  RH  035%=      5-min Rain = 0
KOD1 192021Z 34022KT 05/M09 A3027 RMK A01 T00461093  RH  036%=      5-min Rain = 0
KOD1 192022Z 34018G23KT 05/M09 A3027 RMK A01 T00451090  RH  037%=      5-min Rain = 0
KOD1 192023Z 34020KT 05/M09 A3027 RMK A01 T00471090  RH  036%=      5-min Rain = 0
KOD1 192024Z 33021KT 05/M09 A3027 RMK A01 T00471092  RH  036%=      5-min Rain = 0
KOD1 192025Z 34016G22KT 05/M09 A3027 RMK A01 T00461092  RH  036%=      5-min Rain = 0
KOD1 192026Z 34020KT 05/M09 A3027 RMK A01 T00461092  RH  036%=      5-min Rain = 0
KOD1 192027Z 34018G23KT 05/M09 A3027 RMK A01 T00461091  RH  036%=      5-min Rain = 0
KOD1 192028Z 35020KT 05/M09 A3027 RMK A01 T00471090  RH  036%=      5-min Rain = 0
KOD1 192029Z 33022G27KT 05/M09 A3027 RMK A01 T00481091  RH  036%=      5-min Rain = 0
KOD1 192030Z 33020G25KT 05/M09 A3027 RMK A01 T00471094  RH  035%=      5-min Rain = 0
KOD1 192031Z 33020G25KT 05/M09 A3026 RMK A01 T00471092  RH  036%=      5-min Rain = 0
KOD1 192032Z 34021KT 05/M09 A3026 RMK A01 T00471094  RH  035%=      5-min Rain = 0
KOD1 192033Z 33021KT 05/M09 A3026 RMK A01 T00481092  RH  035%=      5-min Rain = 0
KOD1 192034Z 33020KT 05/M09 A3026 RMK A01 T00471094  RH  035%=      5-min Rain = 0
KOD1 192035Z 33016KT 05/M09 A3026 RMK A01 T00461092  RH  036%=      5-min Rain = 0
KOD1 192036Z 33017KT 05/M09 A3026 RMK A01 T00471093  RH  036%=      5-min Rain = 0
KOD1 192037Z 34019G24KT 05/M09 A3026 RMK A01 T00461092  RH  036%=      5-min Rain = 0
KOD1 192038Z 35020KT 05/M09 A3026 RMK A01 T00471092  RH  036%=      5-min Rain = 0
KOD1 192039Z 34021G27KT 05/M09 A3026 RMK A01 T00481092  RH  036%=      5-min Rain = 0
KOD1 192040Z 34022G27KT 05/M09 A3027 RMK A01 T00481094  RH  035%=      5-min Rain = 0
KOD1 192041Z 33022KT 05/M09 A3027 RMK A01 T00481094  RH  035%=      5-min Rain = 0
KOD1 192042Z 34022KT 05/M10 A3027 RMK A01 T00471095  RH  035%=      5-min Rain = 0
KOD1 192043Z 35019KT 05/M09 A3027 RMK A01 T00451094  RH  036%=      5-min Rain = 0
KOD1 192044Z 34018KT 05/M09 A3027 RMK A01 T00451092  RH  036%=      5-min Rain = 0
KOD1 192045Z 34020G25KT 05/M09 A3027 RMK A01 T00461094  RH  035%=      5-min Rain = 0
KOD1 192046Z 33022KT 05/M10 A3027 RMK A01 T00471095  RH  035%=      5-min Rain = 0
KOD1 192047Z 33021KT 05/M10 A3027 RMK A01 T00461095  RH  035%=      5-min Rain = 0
KOD1 192048Z 33017KT 05/M09 A3027 RMK A01 T00461093  RH  036%=      5-min Rain = 0
KOD1 192049Z 33022G28KT 05/M09 A3027 RMK A01 T00471093  RH  035%=      5-min Rain = 0
KOD1 192050Z 34022KT 05/M10 A3027 RMK A01 T00471095  RH  035%=      5-min Rain = 0
KOD1 192051Z 34020G25KT 05/M09 A3027 RMK A01 T00461093  RH  035%=      5-min Rain = 0
KOD1 192052Z 35020KT 05/M09 A3027 RMK A01 T00471091  RH  036%=      5-min Rain = 0
KOD1 192053Z 34020KT 05/M09 A3027 RMK A01 T00471092  RH  036%=      5-min Rain = 0
KOD1 192054Z 34020KT 05/M09 A3027 RMK A01 T00461093  RH  036%=      5-min Rain = 0
KOD1 192055Z 33021G26KT 05/M09 A3027 RMK A01 T00461092  RH  036%=      5-min Rain = 0
KOD1 192056Z 34017KT 05/M09 A3027 RMK A01 T00461092  RH  036%=      5-min Rain = 0
KOD1 192057Z 34020KT 05/M09 A3027 RMK A01 T00471094  RH  035%=      5-min Rain = 0
KOD1 192058Z 34022KT 05/M09 A3027 RMK A01 T00461094  RH  035%=      5-min Rain = 0
KOD1 192059Z 36018G23KT 05/M09 A3027 RMK A01 T00471091  RH  036%=      5-min Rain = 0
KOD1 192100Z 35019KT 05/M09 A3027 RMK A01 T00481093  RH  035%=      5-min Rain = 0
KOD1 192101Z 35018G24KT 05/M09 A3027 RMK A01 T00481091  RH  036%=      5-min Rain = 0
KOD1 192102Z 34022KT 05/M09 A3027 RMK A01 T00491094  RH  035%=      5-min Rain = 0
KOD1 192103Z 35020KT 05/M09 A3027 RMK A01 T00471094  RH  035%=      5-min Rain = 0
KOD1 192104Z 35017KT 05/M10 A3027 RMK A01 T00471095  RH  035%=      5-min Rain = 0
KOD1 192105Z 34015KT 05/M09 A3027 RMK A01 T00471091  RH  036%=      5-min Rain = 0
KOD1 192106Z 34019KT 05/M09 A3027 RMK A01 T00481093  RH  035%=      5-min Rain = 0
KOD1 192107Z 35018KT 05/M09 A3027 RMK A01 T00481094  RH  035%=      5-min Rain = 0
KOD1 192108Z 34016KT 05/M09 A3027 RMK A01 T00471093  RH  036%=      5-min Rain = 0
KOD1 192109Z 34019KT 05/M09 A3027 RMK A01 T00471093  RH  035%=      5-min Rain = 0
KOD1 192110Z 35019KT 05/M09 A3027 RMK A01 T00471093  RH  036%=      5-min Rain = 0
KOD1 192111Z 35017KT 05/M09 A3027 RMK A01 T00471092  RH  036%=      5-min Rain = 0
KOD1 192112Z 33017KT 05/M09 A3027 RMK A01 T00491091  RH  036%=      5-min Rain = 0
KOD1 192113Z 33017G22KT 05/M09 A3027 RMK A01 T00491091  RH  036%=      5-min Rain = 0
KOD1 192114Z 35018G23KT 05/M09 A3027 RMK A01 T00511089  RH  036%=      5-min Rain = 0
KOD1 192115Z 34019KT 05/M09 A3027 RMK A01 T00511092  RH  035%=      5-min Rain = 0
KOD1 192116Z 35015G20KT 05/M09 A3027 RMK A01 T00501092  RH  035%=      5-min Rain = 0
KOD1 192117Z 35014KT 05/M09 A3027 RMK A01 T00491092  RH  035%=      5-min Rain = 0
KOD1 192118Z 34013KT 05/M09 A3027 RMK A01 T00491091  RH  035%=      5-min Rain = 0
KOD1 192119Z 34014G19KT 05/M09 A3027 RMK A01 T00501088  RH  036%=      5-min Rain = 0
KOD1 192120Z 34017KT 05/M09 A3027 RMK A01 T00501092  RH  035%=      5-min Rain = 0
KOD1 192121Z 34017KT 05/M09 A3027 RMK A01 T00491092  RH  035%=      5-min Rain = 0
KOD1 192122Z 33019KT 05/M09 A3027 RMK A01 T00491092  RH  035%=      5-min Rain = 0
KOD1 192123Z 35019G27KT 05/M09 A3027 RMK A01 T00491094  RH  035%=      5-min Rain = 0
KOD1 192124Z 35020KT 05/M09 A3027 RMK A01 T00481093  RH  035%=      5-min Rain = 0
KOD1 192125Z 35017G22KT 05/M09 A3027 RMK A01 T00491092  RH  035%=      5-min Rain = 0
KOD1 192126Z 35018G23KT 05/M09 A3027 RMK A01 T00491094  RH  035%=      5-min Rain = 0
KOD1 192127Z 34020KT 05/M09 A3027 RMK A01 T00481093  RH  035%=      5-min Rain = 0
KOD1 192128Z 34020G25KT 05/M09 A3027 RMK A01 T00481094  RH  035%=      5-min Rain = 0
KOD1 192129Z 34019G24KT 05/M09 A3027 RMK A01 T00471094  RH  035%=      5-min Rain = 0
KOD1 192130Z 35019KT 05/M09 A3027 RMK A01 T00471094  RH  035%=      5-min Rain = 0
KOD1 192131Z 35018KT 05/M09 A3027 RMK A01 T00471093  RH  036%=      5-min Rain = 0
KOD1 192132Z 35017KT 05/M09 A3027 RMK A01 T00481092  RH  036%=      5-min Rain = 0
KOD1 192133Z 34016G21KT 05/M09 A3027 RMK A01 T00491091  RH  036%=      5-min Rain = 0
KOD1 192134Z 34018KT 05/M09 A3027 RMK A01 T00491093  RH  035%=      5-min Rain = 0
KOD1 192135Z 34017KT 05/M09 A3027 RMK A01 T00491094  RH  035%=      5-min Rain = 0
KOD1 192136Z 33018KT 05/M09 A3027 RMK A01 T00481093  RH  035%=      5-min Rain = 0
KOD1 192137Z 34015G20KT 05/M09 A3027 RMK A01 T00481092  RH  036%=      5-min Rain = 0
KOD1 192138Z 35018KT 05/M09 A3027 RMK A01 T00491091  RH  036%=      5-min Rain = 0
KOD1 192139Z 34015KT 05/M09 A3028 RMK A01 T00501090  RH  036%=      5-min Rain = 0
KOD1 192140Z 34015KT 05/M09 A3028 RMK A01 T00511090  RH  035%=      5-min Rain = 0
KOD1 192141Z 34015G21KT 05/M09 A3028 RMK A01 T00521092  RH  035%=      5-min Rain = 0
KOD1 192142Z 34017KT 05/M09 A3028 RMK A01 T00501092  RH  035%=      5-min Rain = 0
KOD1 192143Z 34015KT 05/M09 A3028 RMK A01 T00501090  RH  036%=      5-min Rain = 0
KOD1 192144Z 35017KT 05/M09 A3028 RMK A01 T00501091  RH  035%=      5-min Rain = 0
KOD1 192145Z 34015KT 05/M09 A3028 RMK A01 T00511090  RH  035%=      5-min Rain = 0
KOD1 192146Z 34014KT 05/M09 A3028 RMK A01 T00511090  RH  035%=      5-min Rain = 0
KOD1 192147Z 34015KT 05/M09 A3028 RMK A01 T00511091  RH  035%=      5-min Rain = 0
KOD1 192148Z 33017KT 05/M09 A3028 RMK A01 T00501090  RH  035%=      5-min Rain = 0
KOD1 192149Z 34018G23KT 05/M09 A3028 RMK A01 T00501090  RH  035%=      5-min Rain = 0
KOD1 192150Z 33015KT 05/M09 A3028 RMK A01 T00501090  RH  035%=      5-min Rain = 0
KOD1 192151Z 33014KT 05/M09 A3028 RMK A01 T00511090  RH  035%=      5-min Rain = 0
KOD1 192152Z 32017KT 05/M09 A3028 RMK A01 T00511093  RH  035%=      5-min Rain = 0
KOD1 192153Z 32014G19KT 05/M09 A3028 RMK A01 T00491092  RH  035%=      5-min Rain = 0
KOD1 192154Z 35018G24KT 05/M09 A3028 RMK A01 T00491091  RH  035%=      5-min Rain = 0
KOD1 192155Z 33019G24KT 05/M09 A3028 RMK A01 T00491092  RH  035%=      5-min Rain = 0
KOD1 192156Z 33020KT 05/M09 A3029 RMK A01 T00491093  RH  035%=      5-min Rain = 0
KOD1 192157Z 34020KT 05/M09 A3029 RMK A01 T00481093  RH  035%=      5-min Rain = 0
KOD1 192158Z 34021KT 05/M09 A3029 RMK A01 T00471094  RH  035%=      5-min Rain = 0
KOD1 192159Z 35018KT 05/M09 A3029 RMK A01 T00471093  RH  035%=      5-min Rain = 0
KOD1 192200Z 35017KT 05/M09 A3029 RMK A01 T00471092  RH  036%=      5-min Rain = 0
KOD1 192201Z 35018KT 05/M09 A3029 RMK A01 T00471093  RH  035%=      5-min Rain = 0
KOD1 192202Z 35019KT 05/M09 A3029 RMK A01 T00471093  RH  035%=      5-min Rain = 0
KOD1 192203Z 34019KT 05/M09 A3029 RMK A01 T00471093  RH  035%=      5-min Rain = 0
KOD1 192204Z 34018KT 05/M09 A3029 RMK A01 T00471094  RH  035%=      5-min Rain = 0
KOD1 192205Z 34016KT 05/M09 A3029 RMK A01 T00471093  RH  036%=      5-min Rain = 0
KOD1 192206Z 35015G20KT 05/M09 A3029 RMK A01 T00471092  RH  036%=      5-min Rain = 0
KOD1 192207Z 35016KT 05/M09 A3029 RMK A01 T00481092  RH  035%=      5-min Rain = 0
KOD1 192208Z 33015KT 05/M09 A3029 RMK A01 T00481092  RH  035%=      5-min Rain = 0
KOD1 192209Z 34015KT 05/M09 A3029 RMK A01 T00481091  RH  036%=      5-min Rain = 0
KOD1 192210Z 34015KT 05/M09 A3029 RMK A01 T00481091  RH  036%=      5-min Rain = 0
KOD1 192211Z 35012KT 05/M09 A3029 RMK A01 T00491089  RH  036%=      5-min Rain = 0
KOD1 192212Z 34017KT 05/M09 A3029 RMK A01 T00501090  RH  036%=      5-min Rain = 0
KOD1 192213Z 35015KT 05/M09 A3029 RMK A01 T00491091  RH  035%=      5-min Rain = 0
KOD1 192214Z 35015KT 05/M09 A3029 RMK A01 T00491090  RH  036%=      5-min Rain = 0
KOD1 192215Z 35018KT 05/M09 A303 RMK A01 T00491090  RH  036%=      5-min Rain = 0
KOD1 192216Z 34015G20KT 05/M09 A303 RMK A01 T00491091  RH  036%=      5-min Rain = 0
KOD1 192217Z 34013KT 05/M09 A303 RMK A01 T00501089  RH  036%=      5-min Rain = 0
KOD1 192218Z 34016KT 05/M09 A303 RMK A01 T00511090  RH  036%=      5-min Rain = 0
KOD1 192219Z 33016KT 05/M09 A303 RMK A01 T00491093  RH  035%=      5-min Rain = 0
KOD1 192220Z 33016KT 05/M09 A303 RMK A01 T00481091  RH  036%=      5-min Rain = 0
KOD1 192221Z 33016KT 05/M09 A303 RMK A01 T00481090  RH  036%=      5-min Rain = 0
KOD1 192222Z 34015KT 05/M09 A303 RMK A01 T00481090  RH  036%=      5-min Rain = 0
KOD1 192223Z 34016G21KT 05/M09 A303 RMK A01 T00481091  RH  036%=      5-min Rain = 0
KOD1 192224Z 34019KT 05/M09 A303 RMK A01 T00481091  RH  036%=      5-min Rain = 0
KOD1 192225Z 33018KT 05/M09 A303 RMK A01 T00481092  RH  036%=      5-min Rain = 0
KOD1 192226Z 35017KT 05/M09 A303 RMK A01 T00471093  RH  035%=      5-min Rain = 0
KOD1 192227Z 33016KT 05/M09 A303 RMK A01 T00481090  RH  036%=      5-min Rain = 0
KOD1 192228Z 34018KT 05/M09 A303 RMK A01 T00481094  RH  035%=      5-min Rain = 0
KOD1 192229Z 33015KT 05/M09 A303 RMK A01 T00471092  RH  036%=      5-min Rain = 0
KOD1 192230Z 32017KT 05/M09 A303 RMK A01 T00471092  RH  036%=      5-min Rain = 0
KOD1 192231Z 33017KT 05/M09 A303 RMK A01 T00471093  RH  035%=      5-min Rain = 0
KOD1 192232Z 33018KT 05/M09 A303 RMK A01 T00471093  RH  035%=      5-min Rain = 0
KOD1 192233Z 32015KT 05/M09 A303 RMK A01 T00471092  RH  036%=      5-min Rain = 0
KOD1 192234Z 33017KT 05/M09 A303 RMK A01 T00461094  RH  035%=      5-min Rain = 0
KOD1 192235Z 34013KT 05/M09 A303 RMK A01 T00461092  RH  036%=      5-min Rain = 0
KOD1 192236Z 35016KT 05/M09 A303 RMK A01 T00461092  RH  036%=      5-min Rain = 0
KOD1 192237Z 35016KT 05/M09 A303 RMK A01 T00461091  RH  036%=      5-min Rain = 0
KOD1 192238Z 34017KT 05/M09 A303 RMK A01 T00461091  RH  036%=      5-min Rain = 0
KOD1 192239Z 35016KT 05/M09 A303 RMK A01 T00461092  RH  036%=      5-min Rain = 0
KOD1 192240Z 35016KT 05/M09 A303 RMK A01 T00461091  RH  036%=      5-min Rain = 0
KOD1 192241Z 34016KT 05/M09 A303 RMK A01 T00461092  RH  036%=      5-min Rain = 0
KOD1 192242Z 34015KT 05/M09 A303 RMK A01 T00461091  RH  036%=      5-min Rain = 0
KOD1 192243Z 35014KT 05/M09 A303 RMK A01 T00461092  RH  036%=      5-min Rain = 0
KOD1 192244Z 35013KT 05/M09 A303 RMK A01 T00461089  RH  037%=      5-min Rain = 0
KOD1 192245Z 34015KT 05/M09 A303 RMK A01 T00461091  RH  036%=      5-min Rain = 0
KOD1 192246Z 34013KT 05/M09 A303 RMK A01 T00461091  RH  036%=      5-min Rain = 0
KOD1 192247Z 34016G21KT 05/M09 A303 RMK A01 T00461091  RH  036%=      5-min Rain = 0
KOD1 192248Z 34016KT 05/M09 A303 RMK A01 T00451093  RH  036%=      5-min Rain = 0
KOD1 192249Z 34015KT 05/M09 A303 RMK A01 T00451093  RH  036%=      5-min Rain = 0
KOD1 192250Z 34014KT 05/M09 A303 RMK A01 T00451092  RH  036%=      5-min Rain = 0
KOD1 192251Z 34014KT 05/M09 A303 RMK A01 T00451093  RH  036%=      5-min Rain = 0
KOD1 192252Z 34016KT 04/M09 A303 RMK A01 T00441093  RH  036%=      5-min Rain = 0
KOD1 192253Z 34016KT 04/M09 A303 RMK A01 T00441092  RH  036%=      5-min Rain = 0
KOD1 192254Z 35016KT 04/M09 A303 RMK A01 T00441093  RH  036%=      5-min Rain = 0
KOD1 192255Z 35017KT 04/M09 A303 RMK A01 T00431093  RH  036%=      5-min Rain = 0
KOD1 192256Z 34016KT 04/M09 A303 RMK A01 T00431093  RH  036%=      5-min Rain = 0
KOD1 192257Z 34015KT 04/M09 A303 RMK A01 T00431093  RH  037%=      5-min Rain = 0
KOD1 192258Z 35014KT 04/M09 A303 RMK A01 T00431092  RH  037%=      5-min Rain = 0
KOD1 192259Z 34014KT 04/M09 A303 RMK A01 T00431092  RH  037%=      5-min Rain = 0
KOD1 192300Z 34015KT 04/M09 A303 RMK A01 T00431094  RH  036%=      5-min Rain = 0
KOD1 192301Z 35013KT 04/M09 A303 RMK A01 T00421092  RH  037%=      5-min Rain = 0
KOD1 192302Z 35013KT 04/M09 A303 RMK A01 T00421091  RH  037%=      5-min Rain = 0
KOD1 192303Z 35016KT 04/M09 A303 RMK A01 T00421092  RH  037%=      5-min Rain = 0
KOD1 192304Z 35015KT 04/M09 A303 RMK A01 T00421092  RH  037%=      5-min Rain = 0
KOD1 192305Z 35015KT 04/M09 A3031 RMK A01 T00411093  RH  037%=      5-min Rain = 0
KOD1 192306Z 34014KT 04/M09 A3031 RMK A01 T00411092  RH  037%=      5-min Rain = 0
KOD1 192307Z 35013KT 04/M09 A3031 RMK A01 T00411093  RH  037%=      5-min Rain = 0
KOD1 192308Z 35011KT 04/M09 A3031 RMK A01 T00411090  RH  038%=      5-min Rain = 0
KOD1 192309Z 35013KT 04/M09 A3031 RMK A01 T00411091  RH  038%=      5-min Rain = 0
KOD1 192310Z 35013KT 04/M09 A3031 RMK A01 T00401090  RH  038%=      5-min Rain = 0
KOD1 192311Z 34011KT 04/M09 A3031 RMK A01 T00401090  RH  038%=      5-min Rain = 0
KOD1 192312Z 34010KT 04/M09 A3031 RMK A01 T00401089  RH  038%=      5-min Rain = 0
KOD1 192313Z 34011KT 04/M09 A3031 RMK A01 T00401090  RH  038%=      5-min Rain = 0
KOD1 192314Z 34012KT 04/M09 A3031 RMK A01 T00401091  RH  038%=      5-min Rain = 0
KOD1 192315Z 34010KT 04/M09 A3031 RMK A01 T00401090  RH  038%=      5-min Rain = 0
KOD1 192316Z 34013KT 04/M09 A3031 RMK A01 T00401091  RH  038%=      5-min Rain = 0
KOD1 192317Z 34013KT 04/M09 A3031 RMK A01 T00401090  RH  038%=      5-min Rain = 0
KOD1 192318Z 34013KT 04/M09 A3031 RMK A01 T00391090  RH  038%=      5-min Rain = 0
KOD1 192319Z 34011KT 04/M09 A3031 RMK A01 T00391089  RH  039%=      5-min Rain = 0
KOD1 192320Z 34012KT 04/M09 A3031 RMK A01 T00391089  RH  039%=      5-min Rain = 0
KOD1 192321Z 34013KT 04/M09 A3031 RMK A01 T00391090  RH  038%=      5-min Rain = 0
KOD1 192322Z 34013KT 04/M09 A3031 RMK A01 T00381090  RH  039%=      5-min Rain = 0
KOD1 192323Z 34014KT 04/M09 A3031 RMK A01 T00381091  RH  038%=      5-min Rain = 0
KOD1 192324Z 34011KT 04/M09 A3031 RMK A01 T00381090  RH  039%=      5-min Rain = 0
KOD1 192325Z 34010KT 04/M09 A3031 RMK A01 T00371089  RH  039%=      5-min Rain = 0
KOD1 192326Z 34012KT 04/M09 A3031 RMK A01 T00371089  RH  039%=      5-min Rain = 0
KOD1 192327Z 35012KT 04/M09 A3031 RMK A01 T00371090  RH  039%=      5-min Rain = 0
KOD1 192328Z 35011KT 04/M09 A3031 RMK A01 T00361089  RH  039%=      5-min Rain = 0
KOD1 192329Z 35012KT 04/M09 A3031 RMK A01 T00361090  RH  039%=      5-min Rain = 0
KOD1 192330Z 34013KT 04/M09 A3031 RMK A01 T00351090  RH  039%=      5-min Rain = 0
KOD1 192331Z 34009KT 04/M09 A3031 RMK A01 T00351090  RH  039%=      5-min Rain = 0
KOD1 192332Z 34010KT 04/M09 A3031 RMK A01 T00351089  RH  040%=      5-min Rain = 0
KOD1 192333Z 34010KT 04/M09 A3031 RMK A01 T00351089  RH  040%=      5-min Rain = 0
KOD1 192334Z 34010KT 03/M09 A3031 RMK A01 T00341089  RH  040%=      5-min Rain = 0
KOD1 192335Z 34010KT 03/M09 A3031 RMK A01 T00341089  RH  040%=      5-min Rain = 0
KOD1 192336Z 34009KT 03/M09 A3031 RMK A01 T00341089  RH  040%=      5-min Rain = 0
KOD1 192337Z 34010KT 03/M09 A3031 RMK A01 T00331089  RH  040%=      5-min Rain = 0
KOD1 192338Z 35010KT 03/M09 A3031 RMK A01 T00331088  RH  041%=      5-min Rain = 0
KOD1 192339Z 34011KT 03/M09 A3031 RMK A01 T00321089  RH  040%=      5-min Rain = 0
KOD1 192340Z 34010KT 03/M09 A3031 RMK A01 T00321089  RH  041%=      5-min Rain = 0
KOD1 192341Z 35010KT 03/M09 A3031 RMK A01 T00321089  RH  041%=      5-min Rain = 0
KOD1 192342Z 34010KT 03/M09 A3031 RMK A01 T00321088  RH  041%=      5-min Rain = 0
KOD1 192343Z 34011KT 03/M09 A3031 RMK A01 T00311089  RH  041%=      5-min Rain = 0
KOD1 192344Z 34009KT 03/M09 A3031 RMK A01 T00311089  RH  041%=      5-min Rain = 0
KOD1 192345Z 35011KT 03/M09 A3031 RMK A01 T00301089  RH  041%=      5-min Rain = 0
KOD1 192346Z 34011KT 03/M09 A3031 RMK A01 T00301089  RH  041%=      5-min Rain = 0
KOD1 192347Z 34011KT 03/M09 A3031 RMK A01 T00291089  RH  041%=      5-min Rain = 0
KOD1 192348Z 34011KT 03/M09 A3031 RMK A01 T00291088  RH  042%=      5-min Rain = 0
KOD1 192349Z 34010KT 03/M09 A3031 RMK A01 T00291088  RH  042%=      5-min Rain = 0
KOD1 192350Z 34010KT 03/M09 A3031 RMK A01 T00291088  RH  042%=      5-min Rain = 0
KOD1 192351Z 34009KT 03/M09 A3031 RMK A01 T00281088  RH  042%=      5-min Rain = 0
KOD1 192352Z 34010KT 03/M09 A3031 RMK A01 T00281087  RH  042%=      5-min Rain = 0
KOD1 192353Z 34009KT 03/M09 A3031 RMK A01 T00271088  RH  043%=      5-min Rain = 0
KOD1 192354Z 34008KT 03/M09 A3031 RMK A01 T00271087  RH  043%=      5-min Rain = 0
KOD1 192355Z 34008KT 03/M09 A3031 RMK A01 T00261087  RH  043%=      5-min Rain = 0
KOD1 192356Z 34009KT 03/M09 A3031 RMK A01 T00251087  RH  043%=      5-min Rain = 0
KOD1 192357Z 34008KT 03/M09 A3031 RMK A01 T00251087  RH  043%=      5-min Rain = 0
KOD1 192358Z 34008KT 02/M09 A3031 RMK A01 T00241086  RH  044%=      5-min Rain = 0
KOD1 192359Z 34007KT 02/M09 A3031 RMK A01 T00241086  RH  044%=      5-min Rain = 0
KOD1 200000Z 34007KT 02/M09 A3031 RMK A01 T00231086  RH  044%=      5-min Rain = 0
KOD1 200001Z 34008KT 02/M09 A3032 RMK A01 T00221086  RH  045%=      5-min Rain = 0
KOD1 200002Z 34008KT 02/M09 A3032 RMK A01 T00221086  RH  045%=      5-min Rain = 0
KOD1 200003Z 34008KT 02/M09 A3032 RMK A01 T00221086  RH  045%=      5-min Rain = 0
KOD1 200004Z 34008KT 02/M09 A3032 RMK A01 T00211085  RH  045%=      5-min Rain = 0
KOD1 200005Z 34008KT 02/M09 A3031 RMK A01 T00211085  RH  046%=      5-min Rain = 0
KOD1 200006Z 34008KT 02/M08 A3031 RMK A01 T00201084  RH  046%=      5-min Rain = 0
KOD1 200007Z 34007KT 02/M08 A3031 RMK A01 T00191084  RH  046%=      5-min Rain = 0
KOD1 200008Z 34007KT 02/M08 A3031 RMK A01 T00191084  RH  047%=      5-min Rain = 0
KOD1 200009Z 34007KT 02/M08 A3031 RMK A01 T00181084  RH  047%=      5-min Rain = 0
KOD1 200010Z 34007KT 02/M08 A3031 RMK A01 T00181084  RH  047%=      5-min Rain = 0
KOD1 200011Z 34007KT 02/M08 A3031 RMK A01 T00181084  RH  047%=      5-min Rain = 0
KOD1 200012Z 34006KT 02/M08 A3032 RMK A01 T00171084  RH  047%=      5-min Rain = 0
KOD1 200013Z 34007KT 02/M08 A3032 RMK A01 T00171084  RH  047%=      5-min Rain = 0
KOD1 200014Z 34007KT 02/M08 A3032 RMK A01 T00171084  RH  047%=      5-min Rain = 0
KOD1 200015Z 34007KT 02/M08 A3032 RMK A01 T00161084  RH  047%=      5-min Rain = 0
KOD1 200016Z 35007KT 02/M08 A3032 RMK A01 T00161084  RH  048%=      5-min Rain = 0
KOD1 200017Z 35007KT 02/M08 A3032 RMK A01 T00151083  RH  048%=      5-min Rain = 0
KOD1 200018Z 35007KT 02/M08 A3031 RMK A01 T00151084  RH  048%=      5-min Rain = 0
KOD1 200019Z 36007KT 01/M08 A3031 RMK A01 T00131083  RH  048%=      5-min Rain = 0
KOD1 200020Z 35007KT 01/M08 A3031 RMK A01 T00121083  RH  049%=      5-min Rain = 0
KOD1 200021Z 36007KT 01/M08 A3031 RMK A01 T00111083  RH  050%=      5-min Rain = 0
KOD1 200022Z 36007KT 01/M08 A3032 RMK A01 T00101083  RH  050%=      5-min Rain = 0
KOD1 200023Z 36007KT 01/M08 A3032 RMK A01 T00091083  RH  050%=      5-min Rain = 0
KOD1 200024Z 36007KT 01/M08 A3032 RMK A01 T00091083  RH  050%=      5-min Rain = 0
KOD1 200025Z 36008KT 01/M08 A3032 RMK A01 T00081082  RH  051%=      5-min Rain = 0
KOD1 200026Z 36008KT 01/M08 A3032 RMK A01 T00081082  RH  051%=      5-min Rain = 0
KOD1 200027Z 36008KT 01/M08 A3032 RMK A01 T00071082  RH  051%=      5-min Rain = 0
KOD1 200028Z 00008KT 01/M08 A3032 RMK A01 T00071082  RH  052%=      5-min Rain = 0
KOD1 200029Z 35008KT 01/M08 A3032 RMK A01 T00071081  RH  052%=      5-min Rain = 0
KOD1 200030Z 35009KT 01/M08 A3032 RMK A01 T00071081  RH  052%=      5-min Rain = 0
KOD1 200031Z 35008KT 01/M08 A3032 RMK A01 T00071082  RH  052%=      5-min Rain = 0
KOD1 200032Z 35008KT 01/M08 A3032 RMK A01 T00071081  RH  051%=      5-min Rain = 0
KOD1 200033Z 35008KT 01/M08 A3032 RMK A01 T00071082  RH  051%=      5-min Rain = 0
KOD1 200034Z 36007KT 01/M08 A3032 RMK A01 T00071082  RH  052%=      5-min Rain = 0
KOD1 200035Z 36007KT 01/M08 A3032 RMK A01 T00061082  RH  052%=      5-min Rain = 0
KOD1 200036Z 00007KT 00/M08 A3032 RMK A01 T00041082  RH  053%=      5-min Rain = 0
KOD1 200037Z 00007KT 00/M08 A3032 RMK A01 T00031082  RH  053%=      5-min Rain = 0
KOD1 200038Z 00007KT 00/M08 A3032 RMK A01 T00011082  RH  054%=      5-min Rain = 0
KOD1 200039Z 00007KT 00/08 A3032 RMK A01 T00-00-81  RH  054%=      5-min Rain = 0
KOD1 200040Z 00007KT M00/M08 A3032 RMK A01 T10021081  RH  055%=      5-min Rain = 0
KOD1 200041Z 00008KT M00/M08 A3032 RMK A01 T10021081  RH  055%=      5-min Rain = 0
KOD1 200042Z 00008KT M00/M08 A3033 RMK A01 T10031081  RH  056%=      5-min Rain = 0
KOD1 200043Z 00007KT M00/M08 A3033 RMK A01 T10031080  RH  056%=      5-min Rain = 0
KOD1 200044Z 00007KT M00/M08 A3033 RMK A01 T10021080  RH  056%=      5-min Rain = 0
KOD1 200045Z 36006KT M00/M08 A3033 RMK A01 T10021080  RH  056%=      5-min Rain = 0
KOD1 200046Z 00006KT M00/M08 A3033 RMK A01 T10021080  RH  056%=      5-min Rain = 0
KOD1 200047Z 00006KT M00/M08 A3033 RMK A01 T10021080  RH  056%=      5-min Rain = 0
KOD1 200048Z 00006KT M00/M08 A3033 RMK A01 T10021080  RH  056%=      5-min Rain = 0
KOD1 200049Z 01006KT M00/M08 A3033 RMK A01 T10031080  RH  056%=      5-min Rain = 0
KOD1 200050Z 01006KT M00/M08 A3033 RMK A01 T10031079  RH  056%=      5-min Rain = 0
KOD1 200051Z 01005KT M00/M08 A3033 RMK A01 T10031079  RH  057%=      5-min Rain = 0
KOD1 200052Z 01005KT M00/M08 A3033 RMK A01 T10031078  RH  057%=      5-min Rain = 0
KOD1 200053Z 01005KT M00/M08 A3033 RMK A01 T10031078  RH  057%=      5-min Rain = 0
KOD1 200054Z 00005KT M00/M08 A3033 RMK A01 T10031078  RH  057%=      5-min Rain = 0
KOD1 200055Z 00004KT M00/M08 A3033 RMK A01 T10041078  RH  057%=      5-min Rain = 0
KOD1 200056Z 36004KT M00/M08 A3033 RMK A01 T10041078  RH  057%=      5-min Rain = 0
KOD1 200057Z 36004KT M00/M08 A3033 RMK A01 T10041078  RH  057%=      5-min Rain = 0
KOD1 200058Z 00003KT M00/M08 A3033 RMK A01 T10041078  RH  057%=      5-min Rain = 0
KOD1 200059Z 36003KT M00/M08 A3033 RMK A01 T10041078  RH  057%=      5-min Rain = 0
KOD1 200100Z 00003KT M00/M08 A3033 RMK A01 T10041078  RH  057%=      5-min Rain = 0
KOD1 200101Z 00004KT M00/M08 A3033 RMK A01 T10041078  RH  057%=      5-min Rain = 0
KOD1 200102Z 01003KT M00/M08 A3033 RMK A01 T10041078  RH  057%=      5-min Rain = 0
KOD1 200103Z 01003KT M00/M08 A3033 RMK A01 T10031078  RH  057%=      5-min Rain = 0
KOD1 200104Z 00003KT M00/M08 A3033 RMK A01 T10031078  RH  057%=      5-min Rain = 0
KOD1 200105Z 01003KT M00/M08 A3033 RMK A01 T10021078  RH  056%=      5-min Rain = 0
KOD1 200106Z 01004KT M00/M08 A3033 RMK A01 T10011078  RH  056%=      5-min Rain = 0
KOD1 200107Z 01004KT M00/M08 A3033 RMK A01 T10011079  RH  056%=      5-min Rain = 0
KOD1 200108Z 01004KT M00/M08 A3033 RMK A01 T10021079  RH  056%=      5-min Rain = 0
KOD1 200109Z 01004KT M00/M08 A3033 RMK A01 T10021079  RH  056%=      5-min Rain = 0
KOD1 200110Z 01005KT M00/M08 A3033 RMK A01 T10031079  RH  057%=      5-min Rain = 0
KOD1 200111Z 01005KT M00/M08 A3033 RMK A01 T10041078  RH  057%=      5-min Rain = 0
KOD1 200112Z 01006KT M00/M08 A3033 RMK A01 T10041079  RH  057%=      5-min Rain = 0
KOD1 200113Z 01006KT M01/M08 A3033 RMK A01 T10061079  RH  058%=      5-min Rain = 0
KOD1 200114Z 01007KT M01/M08 A3033 RMK A01 T10071079  RH  058%=      5-min Rain = 0
KOD1 200115Z 01007KT M01/M08 A3033 RMK A01 T10081078  RH  059%=      5-min Rain = 0
KOD1 200116Z 01007KT M01/M08 A3033 RMK A01 T10081077  RH  060%=      5-min Rain = 0
KOD1 200117Z 01007KT M01/M08 A3033 RMK A01 T10091077  RH  060%=      5-min Rain = 0
KOD1 200118Z 00008KT M01/M08 A3033 RMK A01 T10091077  RH  060%=      5-min Rain = 0
KOD1 200119Z 00008KT M01/M08 A3033 RMK A01 T10091076  RH  061%=      5-min Rain = 0
KOD1 200120Z 00008KT M01/M08 A3033 RMK A01 T10091076  RH  061%=      5-min Rain = 0
KOD1 200121Z 36008KT M01/M08 A3033 RMK A01 T10101075  RH  061%=      5-min Rain = 0
KOD1 200122Z 00009KT M01/M08 A3034 RMK A01 T10111075  RH  062%=      5-min Rain = 0
KOD1 200123Z 36009KT M01/M07 A3034 RMK A01 T10111074  RH  062%=      5-min Rain = 0
KOD1 200124Z 36009KT M01/M07 A3033 RMK A01 T10121074  RH  063%=      5-min Rain = 0
KOD1 200125Z 36009KT M01/M07 A3033 RMK A01 T10121073  RH  063%=      5-min Rain = 0
KOD1 200126Z 36010KT M01/M07 A3033 RMK A01 T10121073  RH  063%=      5-min Rain = 0
KOD1 200127Z 36010KT M01/M07 A3033 RMK A01 T10131073  RH  064%=      5-min Rain = 0
KOD1 200128Z 35010KT M01/M07 A3033 RMK A01 T10121072  RH  064%=      5-min Rain = 0
KOD1 200129Z 36010KT M01/M07 A3033 RMK A01 T10121072  RH  064%=      5-min Rain = 0
KOD1 200130Z 36010KT M01/M07 A3033 RMK A01 T10111072  RH  063%=      5-min Rain = 0
KOD1 200131Z 36010KT M01/M07 A3033 RMK A01 T10111072  RH  063%=      5-min Rain = 0
KOD1 200132Z 36010KT M01/M07 A3033 RMK A01 T10111072  RH  063%=      5-min Rain = 0
KOD1 200133Z 36010KT M01/M07 A3033 RMK A01 T10111072  RH  063%=      5-min Rain = 0
KOD1 200134Z 36010KT M01/M07 A3033 RMK A01 T10111072  RH  063%=      5-min Rain = 0
KOD1 200135Z 36009KT M01/M07 A3033 RMK A01 T10111072  RH  063%=      5-min Rain = 0
KOD1 200136Z 00009KT M01/M07 A3033 RMK A01 T10111072  RH  063%=      5-min Rain = 0
KOD1 200137Z 00009KT M01/M07 A3033 RMK A01 T10111072  RH  063%=      5-min Rain = 0
KOD1 200138Z 00009KT M01/M07 A3033 RMK A01 T10111072  RH  063%=      5-min Rain = 0
KOD1 200139Z 00009KT M01/M07 A3033 RMK A01 T10101072  RH  063%=      5-min Rain = 0
KOD1 200140Z 01009KT M01/M07 A3033 RMK A01 T10101072  RH  063%=      5-min Rain = 0
KOD1 200141Z 01010KT M01/M07 A3033 RMK A01 T10091072  RH  063%=      5-min Rain = 0
KOD1 200142Z 01010KT M01/M07 A3033 RMK A01 T10091071  RH  062%=      5-min Rain = 0
KOD1 200143Z 01009KT M01/M07 A3033 RMK A01 T10081071  RH  062%=      5-min Rain = 0
KOD1 200144Z 01009KT M01/M07 A3033 RMK A01 T10081071  RH  062%=      5-min Rain = 0
KOD1 200145Z 01008KT M01/M07 A3033 RMK A01 T10071072  RH  062%=      5-min Rain = 0
KOD1 200146Z 02008KT M01/M07 A3033 RMK A01 T10061071  RH  061%=      5-min Rain = 0
KOD1 200147Z 02007KT M01/M07 A3033 RMK A01 T10061072  RH  061%=      5-min Rain = 0
KOD1 200148Z 02007KT M01/M07 A3033 RMK A01 T10061072  RH  061%=      5-min Rain = 0
KOD1 200149Z 02008KT M01/M07 A3033 RMK A01 T10061072  RH  061%=      5-min Rain = 0
KOD1 200150Z 02007KT M01/M07 A3033 RMK A01 T10071072  RH  061%=      5-min Rain = 0
KOD1 200151Z 03007KT M01/M07 A3033 RMK A01 T10071072  RH  062%=      5-min Rain = 0
KOD1 200152Z 03007KT M01/M07 A3033 RMK A01 T10081072  RH  062%=      5-min Rain = 0
KOD1 200153Z 03007KT M01/M07 A3033 RMK A01 T10101072  RH  063%=      5-min Rain = 0
KOD1 200154Z 03007KT M01/M07 A3033 RMK A01 T10111072  RH  063%=      5-min Rain = 0
KOD1 200155Z 03006KT M01/M07 A3033 RMK A01 T10131072  RH  064%=      5-min Rain = 0
KOD1 200156Z 03006KT M01/M07 A3033 RMK A01 T10141073  RH  064%=      5-min Rain = 0
KOD1 200157Z 03006KT M02/M07 A3033 RMK A01 T10151073  RH  065%=      5-min Rain = 0
KOD1 200158Z 03006KT M02/M07 A3033 RMK A01 T10161074  RH  065%=      5-min Rain = 0
KOD1 200159Z 03006KT M02/M07 A3033 RMK A01 T10171074  RH  065%=      5-min Rain = 0
KOD1 200200Z 03006KT M02/M07 A3033 RMK A01 T10181074  RH  065%=      5-min Rain = 0
KOD1 200201Z 03006KT M02/M07 A3033 RMK A01 T10191074  RH  066%=      5-min Rain = 0
KOD1 200202Z 03006KT M02/M07 A3033 RMK A01 T10201074  RH  066%=      5-min Rain = 0
KOD1 200203Z 03005KT M02/M08 A3033 RMK A01 T10201075  RH  066%=      5-min Rain = 0
KOD1 200204Z 03005KT M02/M08 A3033 RMK A01 T10211075  RH  067%=      5-min Rain = 0
KOD1 200205Z 03005KT M02/M08 A3033 RMK A01 T10211075  RH  067%=      5-min Rain = 0
KOD1 200206Z 03005KT M02/M07 A3033 RMK A01 T10221074  RH  067%=      5-min Rain = 0
KOD1 200207Z 03005KT M02/M07 A3033 RMK A01 T10221074  RH  068%=      5-min Rain = 0
KOD1 200208Z 03005KT M02/M07 A3033 RMK A01 T10231074  RH  068%=      5-min Rain = 0
KOD1 200209Z 03005KT M02/M07 A3033 RMK A01 T10231074  RH  068%=      5-min Rain = 0
KOD1 200210Z 03005KT M02/M07 A3032 RMK A01 T10231074  RH  068%=      5-min Rain = 0
KOD1 200211Z 03005KT M02/M08 A3033 RMK A01 T10241075  RH  068%=      5-min Rain = 0
KOD1 200212Z 02004KT M02/M08 A3033 RMK A01 T10241075  RH  068%=      5-min Rain = 0
KOD1 200213Z 02004KT M02/M08 A3033 RMK A01 T10241075  RH  068%=      5-min Rain = 0
KOD1 200214Z 03003KT M02/M08 A3033 RMK A01 T10241075  RH  068%=      5-min Rain = 0
KOD1 200215Z 03003KT M03/M08 A3033 RMK A01 T10251075  RH  068%=      5-min Rain = 0
KOD1 200216Z 04003KT M03/M08 A3033 RMK A01 T10251075  RH  068%=      5-min Rain = 0
KOD1 200217Z 05003KT M03/M08 A3033 RMK A01 T10251075  RH  068%=      5-min Rain = 0
KOD1 200218Z 06003KT M02/M07 A3033 RMK A01 T10241074  RH  069%=      5-min Rain = 0
KOD1 200219Z 07003KT M02/M07 A3033 RMK A01 T10241074  RH  069%=      5-min Rain = 0
KOD1 200220Z 07003KT M02/M07 A3033 RMK A01 T10231073  RH  068%=      5-min Rain = 0
KOD1 200221Z 06003KT M02/M07 A3032 RMK A01 T10231073  RH  068%=      5-min Rain = 0
KOD1 200222Z 06004KT M02/M07 A3032 RMK A01 T10231073  RH  068%=      5-min Rain = 0
KOD1 200223Z 06004KT M02/M07 A3032 RMK A01 T10221073  RH  068%=      5-min Rain = 0
KOD1 200224Z 06004KT M02/M07 A3032 RMK A01 T10221073  RH  068%=      5-min Rain = 0
KOD1 200225Z 05004KT M02/M08 A3032 RMK A01 T10221075  RH  067%=      5-min Rain = 0
KOD1 200226Z 05004KT M02/M08 A3032 RMK A01 T10231076  RH  067%=      5-min Rain = 0
KOD1 200227Z 05004KT M02/M08 A3032 RMK A01 T10231077  RH  066%=      5-min Rain = 0
KOD1 200228Z 04004KT M02/M08 A3032 RMK A01 T10241078  RH  066%=      5-min Rain = 0
KOD1 200229Z 04004KT M02/M08 A3032 RMK A01 T10241078  RH  067%=      5-min Rain = 0
KOD1 200230Z 04004KT M03/M08 A3032 RMK A01 T10251076  RH  068%=      5-min Rain = 0
KOD1 200231Z 04005KT M02/M08 A3032 RMK A01 T10241075  RH  068%=      5-min Rain = 0
KOD1 200232Z 04005KT M02/M08 A3032 RMK A01 T10241075  RH  068%=      5-min Rain = 0
KOD1 200233Z 04006KT M02/M08 A3032 RMK A01 T10241075  RH  068%=      5-min Rain = 0
KOD1 200234Z 04006KT M03/M08 A3032 RMK A01 T10251076  RH  068%=      5-min Rain = 0
KOD1 200235Z 04007KT M03/M08 A3032 RMK A01 T10271078  RH  068%=      5-min Rain = 0
KOD1 200236Z 04007KT M03/M08 A3032 RMK A01 T10301079  RH  069%=      5-min Rain = 0
KOD1 200237Z 04007KT M03/M08 A3032 RMK A01 T10331079  RH  071%=      5-min Rain = 0
KOD1 200238Z 04007KT M04/M08 A3032 RMK A01 T10351079  RH  072%=      5-min Rain = 0
KOD1 200239Z 04007KT M04/M08 A3032 RMK A01 T10371079  RH  073%=      5-min Rain = 0
KOD1 200240Z 05007KT M04/M08 A3032 RMK A01 T10391079  RH  074%=      5-min Rain = 0
KOD1 200241Z 05007KT M04/M08 A3032 RMK A01 T10401078  RH  075%=      5-min Rain = 0
KOD1 200242Z 05007KT M04/M08 A3032 RMK A01 T10411076  RH  076%=      5-min Rain = 0
KOD1 200243Z 05007KT M04/M08 A3032 RMK A01 T10401075  RH  077%=      5-min Rain = 0
KOD1 200244Z 05006KT M04/M07 A3032 RMK A01 T10401074  RH  077%=      5-min Rain = 0
KOD1 200245Z 06007KT M04/M07 A3032 RMK A01 T10401074  RH  077%=      5-min Rain = 0
KOD1 200246Z 06007KT M04/M07 A3032 RMK A01 T10391074  RH  077%=      5-min Rain = 0
KOD1 200247Z 06007KT M04/M07 A3032 RMK A01 T10391074  RH  077%=      5-min Rain = 0
KOD1 200248Z 06007KT M04/M07 A3032 RMK A01 T10391073  RH  077%=      5-min Rain = 0
KOD1 200249Z 06006KT M04/M07 A3032 RMK A01 T10381072  RH  077%=      5-min Rain = 0
KOD1 200250Z 06006KT M04/M07 A3032 RMK A01 T10381072  RH  077%=      5-min Rain = 0
KOD1 200251Z 06006KT M04/M07 A3032 RMK A01 T10371072  RH  077%=      5-min Rain = 0
KOD1 200252Z 06006KT M04/M07 A3032 RMK A01 T10361071  RH  077%=      5-min Rain = 0
KOD1 200253Z 06006KT M04/M07 A3032 RMK A01 T10361071  RH  077%=      5-min Rain = 0
KOD1 200254Z 06006KT M04/M07 A3032 RMK A01 T10351070  RH  077%=      5-min Rain = 0
KOD1 200255Z 06006KT M03/M07 A3032 RMK A01 T10341069  RH  076%=      5-min Rain = 0
KOD1 200256Z 06006KT M03/M07 A3032 RMK A01 T10311068  RH  076%=      5-min Rain = 0
KOD1 200257Z 06006KT M03/M07 A3032 RMK A01 T10291068  RH  075%=      5-min Rain = 0
KOD1 200258Z 06006KT M03/M07 A3033 RMK A01 T10281069  RH  073%=      5-min Rain = 0
KOD1 200259Z 06006KT M03/M07 A3033 RMK A01 T10271069  RH  073%=      5-min Rain = 0
KOD1 200300Z 06005KT M03/M07 A3033 RMK A01 T10271070  RH  072%=      5-min Rain = 0
KOD1 200301Z 06005KT M03/M07 A3033 RMK A01 T10271070  RH  072%=      5-min Rain = 0
KOD1 200302Z 06005KT M03/M07 A3033 RMK A01 T10271070  RH  072%=      5-min Rain = 0
KOD1 200303Z 05005KT M03/M07 A3033 RMK A01 T10271071  RH  072%=      5-min Rain = 0
KOD1 200304Z 05005KT M03/M07 A3034 RMK A01 T10271071  RH  072%=      5-min Rain = 0
KOD1 200305Z 04005KT M03/M07 A3034 RMK A01 T10271071  RH  072%=      5-min Rain = 0
KOD1 200306Z 04005KT M03/M07 A3034 RMK A01 T10281071  RH  072%=      5-min Rain = 0
KOD1 200307Z 03005KT M03/M07 A3034 RMK A01 T10271070  RH  072%=      5-min Rain = 0
KOD1 200308Z 03005KT M03/M07 A3034 RMK A01 T10281070  RH  072%=      5-min Rain = 0
KOD1 200309Z 03005KT M03/M07 A3034 RMK A01 T10281070  RH  073%=      5-min Rain = 0
KOD1 200310Z 02005KT M03/M07 A3034 RMK A01 T10281070  RH  073%=      5-min Rain = 0
KOD1 200311Z 03006KT M03/M07 A3034 RMK A01 T10281070  RH  073%=      5-min Rain = 0
KOD1 200312Z 02007KT M03/M07 A3034 RMK A01 T10291070  RH  073%=      5-min Rain = 0
KOD1 200313Z 02007KT M03/M07 A3034 RMK A01 T10301070  RH  074%=      5-min Rain = 0
KOD1 200314Z 02008KT M03/M07 A3034 RMK A01 T10301069  RH  075%=      5-min Rain = 0
KOD1 200315Z 02008KT M03/M07 A3034 RMK A01 T10301067  RH  075%=      5-min Rain = 0
KOD1 200316Z 02008KT M03/M07 A3034 RMK A01 T10291066  RH  076%=      5-min Rain = 0
KOD1 200317Z 02008KT M03/M07 A3034 RMK A01 T10281066  RH  075%=      5-min Rain = 0
KOD1 200318Z 02008KT M03/M07 A3034 RMK A01 T10271065  RH  075%=      5-min Rain = 0
KOD1 200319Z 03008KT M03/M07 A3034 RMK A01 T10261065  RH  075%=      5-min Rain = 0
KOD1 200320Z 03008KT M03/M07 A3034 RMK A01 T10251065  RH  074%=      5-min Rain = 0
KOD1 200321Z 03008KT M03/M07 A3034 RMK A01 T10251065  RH  074%=      5-min Rain = 0
KOD1 200322Z 03007KT M02/M07 A3034 RMK A01 T10241065  RH  074%=      5-min Rain = 0
KOD1 200323Z 03008KT M02/M07 A3034 RMK A01 T10241065  RH  073%=      5-min Rain = 0
KOD1 200324Z 03007KT M02/M07 A3035 RMK A01 T10231065  RH  073%=      5-min Rain = 0
KOD1 200325Z 03007KT M02/M06 A3035 RMK A01 T10231064  RH  073%=      5-min Rain = 0
KOD1 200326Z 03007KT M02/M06 A3035 RMK A01 T10221064  RH  073%=      5-min Rain = 0
KOD1 200327Z 03007KT M02/M06 A3035 RMK A01 T10221064  RH  073%=      5-min Rain = 0
KOD1 200328Z 04007KT M02/M06 A3035 RMK A01 T10211064  RH  072%=      5-min Rain = 0
KOD1 200329Z 04006KT M02/M06 A3035 RMK A01 T10211064  RH  072%=      5-min Rain = 0
KOD1 200330Z 04006KT M02/M06 A3035 RMK A01 T10201064  RH  072%=      5-min Rain = 0
KOD1 200331Z 04006KT M02/M06 A3035 RMK A01 T10201064  RH  072%=      5-min Rain = 0
KOD1 200332Z 04005KT M02/M07 A3035 RMK A01 T10201065  RH  071%=      5-min Rain = 0
KOD1 200333Z 04005KT M02/M07 A3035 RMK A01 T10201065  RH  071%=      5-min Rain = 0
KOD1 200334Z 04005KT M02/M07 A3035 RMK A01 T10201065  RH  071%=      5-min Rain = 0
KOD1 200335Z 04005KT M02/M07 A3035 RMK A01 T10201065  RH  071%=      5-min Rain = 0
KOD1 200336Z 04005KT M02/M07 A3035 RMK A01 T10201065  RH  071%=      5-min Rain = 0
KOD1 200337Z 03005KT M02/M07 A3035 RMK A01 T10201066  RH  071%=      5-min Rain = 0
KOD1 200338Z 03005KT M02/M07 A3035 RMK A01 T10201066  RH  071%=      5-min Rain = 0
KOD1 200339Z 03005KT M02/M07 A3035 RMK A01 T10201066  RH  071%=      5-min Rain = 0
KOD1 200340Z 03006KT M02/M07 A3035 RMK A01 T10211066  RH  071%=      5-min Rain = 0
KOD1 200341Z 03006KT M02/M07 A3035 RMK A01 T10211067  RH  071%=      5-min Rain = 0
KOD1 200342Z 03006KT M02/M07 A3035 RMK A01 T10221066  RH  071%=      5-min Rain = 0
KOD1 200343Z 03006KT M02/M07 A3035 RMK A01 T10221066  RH  072%=      5-min Rain = 0
KOD1 200344Z 03007KT M02/M07 A3035 RMK A01 T10221066  RH  072%=      5-min Rain = 0
KOD1 200345Z 03007KT M02/M07 A3035 RMK A01 T10231066  RH  072%=      5-min Rain = 0
KOD1 200346Z 03007KT M02/M07 A3035 RMK A01 T10231066  RH  073%=      5-min Rain = 0
KOD1 200347Z 03007KT M02/M07 A3035 RMK A01 T10241066  RH  073%=      5-min Rain = 0
KOD1 200348Z 03007KT M02/M07 A3035 RMK A01 T10241066  RH  073%=      5-min Rain = 0
KOD1 200349Z 03007KT M03/M07 A3035 RMK A01 T10251065  RH  074%=      5-min Rain = 0
KOD1 200350Z 03007KT M03/M07 A3035 RMK A01 T10251065  RH  074%=      5-min Rain = 0
KOD1 200351Z 03007KT M03/M07 A3035 RMK A01 T10251065  RH  074%=      5-min Rain = 0
KOD1 200352Z 03007KT M03/M07 A3035 RMK A01 T10261065  RH  074%=      5-min Rain = 0
KOD1 200353Z 03007KT M03/M07 A3035 RMK A01 T10261065  RH  074%=      5-min Rain = 0
KOD1 200354Z 03006KT M03/M07 A3035 RMK A01 T10261065  RH  074%=      5-min Rain = 0
KOD1 200355Z 03006KT M03/M07 A3035 RMK A01 T10261066  RH  074%=      5-min Rain = 0
KOD1 200356Z 03005KT M03/M07 A3035 RMK A01 T10261066  RH  074%=      5-min Rain = 0
KOD1 200357Z 03005KT M03/M07 A3035 RMK A01 T10271066  RH  074%=      5-min Rain = 0
KOD1 200358Z 03004KT M03/M07 A3035 RMK A01 T10271066  RH  074%=      5-min Rain = 0
KOD1 200359Z 03003KT M03/M07 A3035 RMK A01 T10271066  RH  074%=      5-min Rain = 0
KOD1 200400Z 03002KT M03/M07 A3035 RMK A01 T10271066  RH  074%=      5-min Rain = 0
KOD1 200401Z 03002KT M03/M07 A3036 RMK A01 T10271066  RH  075%=      5-min Rain = 0
KOD1 200402Z 02001KT M03/M07 A3036 RMK A01 T10281066  RH  075%=      5-min Rain = 0
KOD1 200403Z 04001KT M03/M07 A3036 RMK A01 T10281066  RH  075%=      5-min Rain = 0
KOD1 200404Z 08000KT M03/M07 A3036 RMK A01 T10271066  RH  075%=      5-min Rain = 0
KOD1 200405Z 10001KT M03/M07 A3036 RMK A01 T10271065  RH  075%=      5-min Rain = 0
KOD1 200406Z 11001KT M03/M07 A3036 RMK A01 T10271065  RH  075%=      5-min Rain = 0
KOD1 200407Z 10000KT M03/M07 A3036 RMK A01 T10261065  RH  075%=      5-min Rain = 0
KOD1 200408Z 09000KT M03/M07 A3036 RMK A01 T10261065  RH  075%=      5-min Rain = 0
KOD1 200409Z 00000KT M03/M07 A3036 RMK A01 T10261065  RH  074%=      5-min Rain = 0
KOD1 200410Z 00000KT M03/M07 A3036 RMK A01 T10251065  RH  074%=      5-min Rain = 0
KOD1 200411Z 00000KT M03/M07 A3036 RMK A01 T10251065  RH  074%=      5-min Rain = 0
KOD1 200412Z 00000KT M03/M07 A3036 RMK A01 T10251065  RH  074%=      5-min Rain = 0
KOD1 200413Z 00000KT M02/M07 A3036 RMK A01 T10241065  RH  074%=      5-min Rain = 0
KOD1 200414Z 26001KT M02/M07 A3036 RMK A01 T10241065  RH  073%=      5-min Rain = 0
KOD1 200415Z 26001KT M02/M07 A3036 RMK A01 T10241065  RH  073%=      5-min Rain = 0
KOD1 200416Z 25001KT M02/M07 A3036 RMK A01 T10231066  RH  073%=      5-min Rain = 0
KOD1 200417Z 28001KT M02/M07 A3036 RMK A01 T10231066  RH  073%=      5-min Rain = 0
KOD1 200418Z 31001KT M02/M07 A3036 RMK A01 T10241066  RH  073%=      5-min Rain = 0
KOD1 200419Z 29001KT M03/M07 A3036 RMK A01 T10251066  RH  073%=      5-min Rain = 0
KOD1 200420Z 32001KT M03/M07 A3036 RMK A01 T10251066  RH  074%=      5-min Rain = 0
KOD1 200421Z 32001KT M03/M07 A3036 RMK A01 T10251065  RH  074%=      5-min Rain = 0
KOD1 200422Z 34001KT M03/M07 A3036 RMK A01 T10261066  RH  074%=      5-min Rain = 0
KOD1 200423Z 36001KT M03/M07 A3036 RMK A01 T10261066  RH  074%=      5-min Rain = 0
KOD1 200424Z 35002KT M03/M07 A3036 RMK A01 T10271066  RH  074%=      5-min Rain = 0
KOD1 200425Z 34001KT M03/M07 A3036 RMK A01 T10271067  RH  074%=      5-min Rain = 0
KOD1 200426Z 33001KT M03/M07 A3035 RMK A01 T10271067  RH  074%=      5-min Rain = 0
KOD1 200427Z 34001KT M03/M07 A3036 RMK A01 T10281068  RH  074%=      5-min Rain = 0
KOD1 200428Z 32001KT M03/M07 A3036 RMK A01 T10291068  RH  074%=      5-min Rain = 0
KOD1 200429Z 32001KT M03/M07 A3036 RMK A01 T10301069  RH  074%=      5-min Rain = 0
KOD1 200430Z 30001KT M03/M07 A3036 RMK A01 T10301069  RH  075%=      5-min Rain = 0
KOD1 200431Z 30001KT M03/M07 A3036 RMK A01 T10311069  RH  075%=      5-min Rain = 0
KOD1 200432Z 31001KT M03/M07 A3036 RMK A01 T10321070  RH  075%=      5-min Rain = 0
KOD1 200433Z 34000KT M03/M07 A3036 RMK A01 T10331070  RH  075%=      5-min Rain = 0
KOD1 200434Z 00001KT M03/M07 A3036 RMK A01 T10331070  RH  076%=      5-min Rain = 0
KOD1 200435Z 02001KT M03/M07 A3036 RMK A01 T10341069  RH  076%=      5-min Rain = 0
KOD1 200436Z 03002KT M03/M07 A3036 RMK A01 T10341069  RH  077%=      5-min Rain = 0
KOD1 200437Z 04002KT M03/M07 A3036 RMK A01 T10341069  RH  077%=      5-min Rain = 0
KOD1 200438Z 04001KT M03/M07 A3036 RMK A01 T10341069  RH  077%=      5-min Rain = 0
KOD1 200439Z 04001KT M03/M07 A3036 RMK A01 T10341069  RH  077%=      5-min Rain = 0
KOD1 200440Z 04001KT M03/M07 A3036 RMK A01 T10341069  RH  077%=      5-min Rain = 0
KOD1 200441Z 05001KT M03/M07 A3036 RMK A01 T10341069  RH  077%=      5-min Rain = 0
KOD1 200442Z 05001KT M03/M07 A3036 RMK A01 T10341069  RH  077%=      5-min Rain = 0
KOD1 200443Z 03002KT M03/M07 A3036 RMK A01 T10341069  RH  077%=      5-min Rain = 0
KOD1 200444Z 03001KT M03/M07 A3036 RMK A01 T10341069  RH  077%=      5-min Rain = 0
KOD1 200445Z 04001KT M03/M07 A3036 RMK A01 T10341069  RH  077%=      5-min Rain = 0
KOD1 200446Z 04000KT M03/M07 A3036 RMK A01 T10341069  RH  077%=      5-min Rain = 0
KOD1 200447Z 04000KT M03/M07 A3036 RMK A01 T10341068  RH  077%=      5-min Rain = 0
KOD1 200448Z 04001KT M03/M07 A3036 RMK A01 T10341068  RH  077%=      5-min Rain = 0
KOD1 200449Z 05001KT M03/M07 A3036 RMK A01 T10331067  RH  077%=      5-min Rain = 0
KOD1 200450Z 05002KT M03/M07 A3036 RMK A01 T10331066  RH  078%=      5-min Rain = 0
KOD1 200451Z 05003KT M03/M07 A3036 RMK A01 T10321065  RH  078%=      5-min Rain = 0
KOD1 200452Z 04003KT M03/M07 A3036 RMK A01 T10311066  RH  077%=      5-min Rain = 0
KOD1 200453Z 04004KT M03/M07 A3036 RMK A01 T10321069  RH  075%=      5-min Rain = 0
KOD1 200454Z 04004KT M03/M07 A3036 RMK A01 T10321070  RH  075%=      5-min Rain = 0
KOD1 200455Z 05003KT M03/M07 A3036 RMK A01 T10331071  RH  075%=      5-min Rain = 0
KOD1 200456Z 05003KT M03/M07 A3035 RMK A01 T10341072  RH  075%=      5-min Rain = 0
KOD1 200457Z 05003KT M03/M07 A3035 RMK A01 T10331070  RH  076%=      5-min Rain = 0
KOD1 200458Z 05004KT M03/M07 A3035 RMK A01 T10331071  RH  075%=      5-min Rain = 0
KOD1 200459Z 05004KT M03/M07 A3035 RMK A01 T10341072  RH  075%=      5-min Rain = 0
KOD1 200500Z 05004KT M04/M07 A3035 RMK A01 T10351073  RH  075%=      5-min Rain = 0
KOD1 200501Z 06004KT M04/M07 A3035 RMK A01 T10361074  RH  075%=      5-min Rain = 0
KOD1 200502Z 06004KT M04/M07 A3035 RMK A01 T10381074  RH  076%=      5-min Rain = 0
KOD1 200503Z 06004KT M04/M07 A3035 RMK A01 T10391074  RH  077%=      5-min Rain = 0
KOD1 200504Z 06004KT M04/M07 A3035 RMK A01 T10401073  RH  078%=      5-min Rain = 0
KOD1 200505Z 07004KT M04/M07 A3036 RMK A01 T10391072  RH  078%=      5-min Rain = 0
KOD1 200506Z 07004KT M04/M07 A3036 RMK A01 T10391071  RH  078%=      5-min Rain = 0
KOD1 200507Z 07004KT M04/M07 A3036 RMK A01 T10381070  RH  078%=      5-min Rain = 0
KOD1 200508Z 07005KT M04/M07 A3036 RMK A01 T10371069  RH  078%=      5-min Rain = 0
KOD1 200509Z 07005KT M04/M07 A3036 RMK A01 T10351068  RH  078%=      5-min Rain = 0
KOD1 200510Z 07005KT M03/M07 A3036 RMK A01 T10331067  RH  077%=      5-min Rain = 0
KOD1 200511Z 07005KT M03/M07 A3036 RMK A01 T10321068  RH  076%=      5-min Rain = 0
KOD1 200512Z 06006KT M03/M07 A3036 RMK A01 T10301068  RH  075%=      5-min Rain = 0
KOD1 200513Z 06007KT M03/M07 A3036 RMK A01 T10291068  RH  074%=      5-min Rain = 0
KOD1 200514Z 06007KT M03/M07 A3036 RMK A01 T10271068  RH  073%=      5-min Rain = 0
KOD1 200515Z 05007KT M03/M07 A3036 RMK A01 T10271068  RH  073%=      5-min Rain = 0
KOD1 200516Z 05007KT M03/M07 A3036 RMK A01 T10271068  RH  073%=      5-min Rain = 0
KOD1 200517Z 05007KT M03/M07 A3036 RMK A01 T10281068  RH  074%=      5-min Rain = 0
KOD1 200518Z 05007KT M03/M07 A3036 RMK A01 T10281068  RH  074%=      5-min Rain = 0
KOD1 200519Z 05007KT M03/M07 A3036 RMK A01 T10291068  RH  075%=      5-min Rain = 0
KOD1 200520Z 05007KT M03/M07 A3036 RMK A01 T10311068  RH  076%=      5-min Rain = 0
KOD1 200521Z 05007KT M03/M07 A3036 RMK A01 T10321067  RH  077%=      5-min Rain = 0
KOD1 200522Z 05007KT M03/M07 A3036 RMK A01 T10341068  RH  077%=      5-min Rain = 0
KOD1 200523Z 05008KT M04/M07 A3036 RMK A01 T10351068  RH  078%=      5-min Rain = 0
KOD1 200524Z 05008KT M04/M07 A3036 RMK A01 T10361068  RH  079%=      5-min Rain = 0
KOD1 200525Z 05008KT M04/M07 A3037 RMK A01 T10371068  RH  079%=      5-min Rain = 0
KOD1 200526Z 05007KT M04/M07 A3037 RMK A01 T10381068  RH  080%=      5-min Rain = 0
KOD1 200527Z 05007KT M04/M07 A3036 RMK A01 T10391068  RH  080%=      5-min Rain = 0
KOD1 200528Z 05006KT M04/M07 A3036 RMK A01 T10391068  RH  080%=      5-min Rain = 0
KOD1 200529Z 05007KT M04/M07 A3036 RMK A01 T10391068  RH  080%=      5-min Rain = 0
KOD1 200530Z 05007KT M04/M07 A3036 RMK A01 T10391068  RH  080%=      5-min Rain = 0
KOD1 200531Z 05007KT M04/M07 A3036 RMK A01 T10391068  RH  080%=      5-min Rain = 0
KOD1 200532Z 06007KT M04/M07 A3036 RMK A01 T10391068  RH  080%=      5-min Rain = 0
KOD1 200533Z 06007KT M04/M07 A3036 RMK A01 T10381067  RH  080%=      5-min Rain = 0
KOD1 200534Z 06008KT M04/M07 A3037 RMK A01 T10371066  RH  080%=      5-min Rain = 0
KOD1 200535Z 06008KT M03/M07 A3037 RMK A01 T10341066  RH  078%=      5-min Rain = 0
KOD1 200536Z 06007KT M03/M07 A3037 RMK A01 T10321067  RH  077%=      5-min Rain = 0
KOD1 200537Z 07007KT M03/M07 A3037 RMK A01 T10301067  RH  075%=      5-min Rain = 0
KOD1 200538Z 07006KT M03/M07 A3037 RMK A01 T10281068  RH  074%=      5-min Rain = 0
KOD1 200539Z 07005KT M03/M07 A3037 RMK A01 T10271069  RH  073%=      5-min Rain = 0
KOD1 200540Z 07005KT M03/M07 A3037 RMK A01 T10261070  RH  072%=      5-min Rain = 0
KOD1 200541Z 07006KT M03/M07 A3037 RMK A01 T10251070  RH  071%=      5-min Rain = 0
KOD1 200542Z 07005KT M03/M07 A3037 RMK A01 T10251071  RH  071%=      5-min Rain = 0
KOD1 200543Z 07006KT M03/M07 A3037 RMK A01 T10251071  RH  071%=      5-min Rain = 0
KOD1 200544Z 07006KT M02/M07 A3037 RMK A01 T10241071  RH  070%=      5-min Rain = 0
KOD1 200545Z 07005KT M02/M07 A3036 RMK A01 T10241071  RH  070%=      5-min Rain = 0
KOD1 200546Z 07006KT M03/M07 A3036 RMK A01 T10251071  RH  070%=      5-min Rain = 0
KOD1 200547Z 06006KT M03/M07 A3036 RMK A01 T10251071  RH  070%=      5-min Rain = 0
KOD1 200548Z 06007KT M03/M07 A3036 RMK A01 T10251071  RH  070%=      5-min Rain = 0
KOD1 200549Z 07006KT M03/M07 A3037 RMK A01 T10251071  RH  071%=      5-min Rain = 0
KOD1 200550Z 06006KT M03/M07 A3037 RMK A01 T10251071  RH  071%=      5-min Rain = 0
KOD1 200551Z 06006KT M03/M07 A3037 RMK A01 T10261071  RH  071%=      5-min Rain = 0
KOD1 200552Z 06006KT M03/M07 A3037 RMK A01 T10261071  RH  071%=      5-min Rain = 0
KOD1 200553Z 06006KT M03/M07 A3037 RMK A01 T10271071  RH  072%=      5-min Rain = 0
KOD1 200554Z 06005KT M03/M07 A3037 RMK A01 T10271071  RH  072%=      5-min Rain = 0
KOD1 200555Z 06005KT M03/M07 A3037 RMK A01 T10271071  RH  072%=      5-min Rain = 0
KOD1 200556Z 06005KT M03/M07 A3037 RMK A01 T10281071  RH  072%=      5-min Rain = 0
KOD1 200557Z 06005KT M03/M07 A3038 RMK A01 T10291071  RH  072%=      5-min Rain = 0
KOD1 200558Z 06005KT M03/M07 A3038 RMK A01 T10291072  RH  073%=      5-min Rain = 0
KOD1 200559Z 06004KT M03/M07 A3038 RMK A01 T10301072  RH  073%=      5-min Rain = 0

Page generated in 0.1317 seconds.